<?xml version="1.0" encoding="UTF-8" standalone="no" ?>
<gpx xmlns="http://www.topografix.com/GPX/1/1" xmlns:xsi="http://www.w3.org/2001/XMLSchema-instance" xsi:schemaLocation="http://www.topografix.com/GPX/1/1 http://www.topografix.com/GPX/1/1/gpx.xsd" version="1.1" creator="VisuGPX - https://www.visugpx.com">
  <metadata>
    <name>Saint Guilhem et le Cap de la Pousterle</name>
    <desc><![CDATA[Très belle randonnée au dessus de Saint Guilhem le Désert.
Peut être faite en toute saison.
Cette randonnée présente l\'avantage de pouvoir être faite même après un épisode pluvieux important (on est souvent sur des cailloux ou des pistes stabilisées).]]></desc>
  </metadata>
  <trk>
    <name><![CDATA[Le Cap de la Pousterle]]></name>
    <trkseg>
      <trkpt lat="43.73215" lon="3.55351">
        <ele>73.540001</ele>
      </trkpt>
      <trkpt lat="43.7329" lon="3.55379">
        <ele>71.195786</ele>
      </trkpt>
      <trkpt lat="43.73315" lon="3.55372">
        <ele>73.300934</ele>
      </trkpt>
      <trkpt lat="43.73338" lon="3.55335">
        <ele>80.012184</ele>
      </trkpt>
      <trkpt lat="43.7335" lon="3.55299">
        <ele>80.397499</ele>
      </trkpt>
      <trkpt lat="43.73376" lon="3.55228">
        <ele>88.025002</ele>
      </trkpt>
      <trkpt lat="43.7338" lon="3.55121">
        <ele>94.242188</ele>
      </trkpt>
      <trkpt lat="43.73383" lon="3.55">
        <ele>99.983437</ele>
      </trkpt>
      <trkpt lat="43.73413" lon="3.54937">
        <ele>104.28875</ele>
      </trkpt>
      <trkpt lat="43.73409" lon="3.54895">
        <ele>93.418755</ele>
      </trkpt>
      <trkpt lat="43.73428" lon="3.54859">
        <ele>96.032501</ele>
      </trkpt>
      <trkpt lat="43.73469" lon="3.54824">
        <ele>97.775002</ele>
      </trkpt>
      <trkpt lat="43.73507" lon="3.54808">
        <ele>102.584534</ele>
      </trkpt>
      <trkpt lat="43.7353" lon="3.54829">
        <ele>109.709999</ele>
      </trkpt>
      <trkpt lat="43.73563" lon="3.54851">
        <ele>122.324997</ele>
      </trkpt>
      <trkpt lat="43.73578" lon="3.54853">
        <ele>126.224998</ele>
      </trkpt>
      <trkpt lat="43.73598" lon="3.54834">
        <ele>120.493126</ele>
      </trkpt>
      <trkpt lat="43.73574" lon="3.54872">
        <ele>132.449997</ele>
      </trkpt>
      <trkpt lat="43.73573" lon="3.54874">
        <ele>133.029999</ele>
        <time>2013-03-07T08:10:22Z</time>
      </trkpt>
      <trkpt lat="43.73575" lon="3.54874">
        <ele>133.303757</ele>
        <time>2013-03-07T08:10:24Z</time>
      </trkpt>
      <trkpt lat="43.7359" lon="3.54867">
        <ele>133.232574</ele>
        <time>2013-03-07T08:10:43Z</time>
      </trkpt>
      <trkpt lat="43.73601" lon="3.54872">
        <ele>135.128159</ele>
        <time>2013-03-07T08:10:57Z</time>
      </trkpt>
      <trkpt lat="43.73608" lon="3.5488">
        <ele>138.85582</ele>
        <time>2013-03-07T08:11:05Z</time>
      </trkpt>
      <trkpt lat="43.73624" lon="3.54898">
        <ele>147.574432</ele>
        <time>2013-03-07T08:11:28Z</time>
      </trkpt>
      <trkpt lat="43.73646" lon="3.54903">
        <ele>155.380554</ele>
        <time>2013-03-07T08:11:53Z</time>
      </trkpt>
      <trkpt lat="43.73649" lon="3.54902">
        <ele>156.163208</ele>
        <time>2013-03-07T08:11:56Z</time>
      </trkpt>
      <trkpt lat="43.73673" lon="3.54891">
        <ele>157.478439</ele>
        <time>2013-03-07T08:12:22Z</time>
      </trkpt>
      <trkpt lat="43.73687" lon="3.54886">
        <ele>161.063263</ele>
        <time>2013-03-07T08:12:42Z</time>
      </trkpt>
      <trkpt lat="43.73703" lon="3.54879">
        <ele>165.313263</ele>
        <time>2013-03-07T08:13:03Z</time>
      </trkpt>
      <trkpt lat="43.73717" lon="3.5487">
        <ele>167.803848</ele>
        <time>2013-03-07T08:13:23Z</time>
      </trkpt>
      <trkpt lat="43.73726" lon="3.54852">
        <ele>162.996628</ele>
        <time>2013-03-07T08:13:43Z</time>
      </trkpt>
      <trkpt lat="43.73731" lon="3.5484">
        <ele>162.061325</ele>
        <time>2013-03-07T08:14:03Z</time>
      </trkpt>
      <trkpt lat="43.73732" lon="3.54845">
        <ele>163.038879</ele>
        <time>2013-03-07T08:14:20Z</time>
      </trkpt>
      <trkpt lat="43.73744" lon="3.54833">
        <ele>168.629013</ele>
        <time>2013-03-07T08:14:38Z</time>
      </trkpt>
      <trkpt lat="43.73758" lon="3.54822">
        <ele>175.321106</ele>
        <time>2013-03-07T08:14:59Z</time>
      </trkpt>
      <trkpt lat="43.73773" lon="3.54805">
        <ele>182.340042</ele>
        <time>2013-03-07T08:15:20Z</time>
      </trkpt>
      <trkpt lat="43.73777" lon="3.54786">
        <ele>182.703766</ele>
        <time>2013-03-07T08:15:38Z</time>
      </trkpt>
      <trkpt lat="43.73777" lon="3.54783">
        <ele>182.455139</ele>
        <time>2013-03-07T08:15:41Z</time>
      </trkpt>
      <trkpt lat="43.73778" lon="3.54772">
        <ele>182.608185</ele>
        <time>2013-03-07T08:15:57Z</time>
      </trkpt>
      <trkpt lat="43.73777" lon="3.54769">
        <ele>181.853317</ele>
        <time>2013-03-07T08:16:33Z</time>
      </trkpt>
      <trkpt lat="43.73776" lon="3.54768">
        <ele>181.182999</ele>
        <time>2013-03-07T08:16:59Z</time>
      </trkpt>
      <trkpt lat="43.73775" lon="3.54766">
        <ele>180.432007</ele>
        <time>2013-03-07T08:17:38Z</time>
      </trkpt>
      <trkpt lat="43.73773" lon="3.54755">
        <ele>179.086395</ele>
        <time>2013-03-07T08:17:54Z</time>
      </trkpt>
      <trkpt lat="43.73773" lon="3.54756">
        <ele>178.847351</ele>
        <time>2013-03-07T08:18:21Z</time>
      </trkpt>
      <trkpt lat="43.73774" lon="3.54757">
        <ele>179.319626</ele>
        <time>2013-03-07T08:18:33Z</time>
      </trkpt>
      <trkpt lat="43.73773" lon="3.54755">
        <ele>178.972031</ele>
        <time>2013-03-07T08:19:03Z</time>
      </trkpt>
      <trkpt lat="43.73773" lon="3.54754">
        <ele>178.758987</ele>
        <time>2013-03-07T08:19:25Z</time>
      </trkpt>
      <trkpt lat="43.73773" lon="3.54753">
        <ele>179.120377</ele>
        <time>2013-03-07T08:20:20Z</time>
      </trkpt>
      <trkpt lat="43.73772" lon="3.54752">
        <ele>178.329498</ele>
        <time>2013-03-07T08:21:01Z</time>
      </trkpt>
      <trkpt lat="43.73771" lon="3.5474">
        <ele>177.676285</ele>
        <time>2013-03-07T08:21:20Z</time>
      </trkpt>
      <trkpt lat="43.73777" lon="3.54749">
        <ele>181.234665</ele>
        <time>2013-03-07T08:21:29Z</time>
      </trkpt>
      <trkpt lat="43.73788" lon="3.54769">
        <ele>188.720901</ele>
        <time>2013-03-07T08:21:51Z</time>
      </trkpt>
      <trkpt lat="43.73793" lon="3.54793">
        <ele>194.231049</ele>
        <time>2013-03-07T08:22:13Z</time>
      </trkpt>
      <trkpt lat="43.73793" lon="3.54802">
        <ele>194.821655</ele>
        <time>2013-03-07T08:22:20Z</time>
      </trkpt>
      <trkpt lat="43.73794" lon="3.54818">
        <ele>196.895569</ele>
        <time>2013-03-07T08:22:36Z</time>
      </trkpt>
      <trkpt lat="43.73789" lon="3.54838">
        <ele>195.768753</ele>
        <time>2013-03-07T08:22:49Z</time>
      </trkpt>
      <trkpt lat="43.73782" lon="3.54853">
        <ele>194.263321</ele>
        <time>2013-03-07T08:23:04Z</time>
      </trkpt>
      <trkpt lat="43.73776" lon="3.54869">
        <ele>195.863327</ele>
        <time>2013-03-07T08:23:17Z</time>
      </trkpt>
      <trkpt lat="43.73774" lon="3.54885">
        <ele>200.005249</ele>
        <time>2013-03-07T08:23:30Z</time>
      </trkpt>
      <trkpt lat="43.73772" lon="3.54899">
        <ele>204.055161</ele>
        <time>2013-03-07T08:23:43Z</time>
      </trkpt>
      <trkpt lat="43.73772" lon="3.54907">
        <ele>206.803482</ele>
        <time>2013-03-07T08:23:56Z</time>
      </trkpt>
      <trkpt lat="43.73773" lon="3.54906">
        <ele>206.355911</ele>
        <time>2013-03-07T08:23:59Z</time>
      </trkpt>
      <trkpt lat="43.73779" lon="3.54894">
        <ele>203.738937</ele>
        <time>2013-03-07T08:24:13Z</time>
      </trkpt>
      <trkpt lat="43.73784" lon="3.54882">
        <ele>201.981613</ele>
        <time>2013-03-07T08:24:26Z</time>
      </trkpt>
      <trkpt lat="43.73789" lon="3.54879">
        <ele>202.385757</ele>
        <time>2013-03-07T08:24:40Z</time>
      </trkpt>
      <trkpt lat="43.73789" lon="3.54888">
        <ele>204.128006</ele>
        <time>2013-03-07T08:24:53Z</time>
      </trkpt>
      <trkpt lat="43.73792" lon="3.54903">
        <ele>207.158951</ele>
        <time>2013-03-07T08:25:07Z</time>
      </trkpt>
      <trkpt lat="43.73799" lon="3.54902">
        <ele>207.761383</ele>
        <time>2013-03-07T08:25:18Z</time>
      </trkpt>
      <trkpt lat="43.73809" lon="3.54891">
        <ele>208.464279</ele>
        <time>2013-03-07T08:25:34Z</time>
      </trkpt>
      <trkpt lat="43.73816" lon="3.54878">
        <ele>208.690247</ele>
        <time>2013-03-07T08:25:53Z</time>
      </trkpt>
      <trkpt lat="43.73823" lon="3.54875">
        <ele>208.521881</ele>
        <time>2013-03-07T08:26:02Z</time>
      </trkpt>
      <trkpt lat="43.73827" lon="3.5486">
        <ele>210.018936</ele>
        <time>2013-03-07T08:26:16Z</time>
      </trkpt>
      <trkpt lat="43.73833" lon="3.54851">
        <ele>211.822632</ele>
        <time>2013-03-07T08:26:28Z</time>
      </trkpt>
      <trkpt lat="43.7384" lon="3.54835">
        <ele>214.230316</ele>
        <time>2013-03-07T08:26:43Z</time>
      </trkpt>
      <trkpt lat="43.73849" lon="3.54819">
        <ele>217.765289</ele>
        <time>2013-03-07T08:27:03Z</time>
      </trkpt>
      <trkpt lat="43.73859" lon="3.54802">
        <ele>221.755539</ele>
        <time>2013-03-07T08:27:19Z</time>
      </trkpt>
      <trkpt lat="43.73867" lon="3.54792">
        <ele>222.745117</ele>
        <time>2013-03-07T08:27:31Z</time>
      </trkpt>
      <trkpt lat="43.73876" lon="3.54776">
        <ele>224.001068</ele>
        <time>2013-03-07T08:27:49Z</time>
      </trkpt>
      <trkpt lat="43.73882" lon="3.54771">
        <ele>224.449371</ele>
        <time>2013-03-07T08:27:57Z</time>
      </trkpt>
      <trkpt lat="43.73891" lon="3.54762">
        <ele>225.741501</ele>
        <time>2013-03-07T08:28:12Z</time>
      </trkpt>
      <trkpt lat="43.739" lon="3.5475">
        <ele>228.02858</ele>
        <time>2013-03-07T08:28:25Z</time>
      </trkpt>
      <trkpt lat="43.73905" lon="3.54733">
        <ele>230.569138</ele>
        <time>2013-03-07T08:28:42Z</time>
      </trkpt>
      <trkpt lat="43.73902" lon="3.54738">
        <ele>230.044006</ele>
        <time>2013-03-07T08:28:58Z</time>
      </trkpt>
      <trkpt lat="43.73903" lon="3.54735">
        <ele>230.571182</ele>
        <time>2013-03-07T08:29:49Z</time>
      </trkpt>
      <trkpt lat="43.73906" lon="3.54733">
        <ele>230.47934</ele>
        <time>2013-03-07T08:30:07Z</time>
      </trkpt>
      <trkpt lat="43.73914" lon="3.54718">
        <ele>229.440002</ele>
        <time>2013-03-07T08:30:26Z</time>
      </trkpt>
      <trkpt lat="43.73927" lon="3.54691">
        <ele>227.227142</ele>
        <time>2013-03-07T08:30:47Z</time>
      </trkpt>
      <trkpt lat="43.73939" lon="3.54682">
        <ele>229.038162</ele>
        <time>2013-03-07T08:31:00Z</time>
      </trkpt>
      <trkpt lat="43.73955" lon="3.54661">
        <ele>232.236725</ele>
        <time>2013-03-07T08:31:21Z</time>
      </trkpt>
      <trkpt lat="43.73969" lon="3.54649">
        <ele>231.559433</ele>
        <time>2013-03-07T08:31:37Z</time>
      </trkpt>
      <trkpt lat="43.73981" lon="3.54636">
        <ele>232.673019</ele>
        <time>2013-03-07T08:31:51Z</time>
      </trkpt>
      <trkpt lat="43.73985" lon="3.54628">
        <ele>233.772003</ele>
        <time>2013-03-07T08:31:57Z</time>
      </trkpt>
      <trkpt lat="43.73994" lon="3.54611">
        <ele>237.318527</ele>
        <time>2013-03-07T08:32:12Z</time>
      </trkpt>
      <trkpt lat="43.73999" lon="3.54598">
        <ele>238.000778</ele>
        <time>2013-03-07T08:32:24Z</time>
      </trkpt>
      <trkpt lat="43.74012" lon="3.54586">
        <ele>235.184006</ele>
        <time>2013-03-07T08:32:41Z</time>
      </trkpt>
      <trkpt lat="43.74021" lon="3.54561">
        <ele>235.664673</ele>
        <time>2013-03-07T08:33:02Z</time>
      </trkpt>
      <trkpt lat="43.74024" lon="3.54549">
        <ele>236.7258</ele>
        <time>2013-03-07T08:33:10Z</time>
      </trkpt>
      <trkpt lat="43.74024" lon="3.54542">
        <ele>237.583908</ele>
        <time>2013-03-07T08:33:15Z</time>
      </trkpt>
      <trkpt lat="43.74025" lon="3.54515">
        <ele>240.227127</ele>
        <time>2013-03-07T08:33:37Z</time>
      </trkpt>
      <trkpt lat="43.74024" lon="3.54493">
        <ele>242.780319</ele>
        <time>2013-03-07T08:33:57Z</time>
      </trkpt>
      <trkpt lat="43.74031" lon="3.54463">
        <ele>247.798752</ele>
        <time>2013-03-07T08:34:19Z</time>
      </trkpt>
      <trkpt lat="43.74032" lon="3.54461">
        <ele>248.380844</ele>
        <time>2013-03-07T08:34:21Z</time>
      </trkpt>
      <trkpt lat="43.74033" lon="3.54458">
        <ele>248.992706</ele>
        <time>2013-03-07T08:34:23Z</time>
      </trkpt>
      <trkpt lat="43.74047" lon="3.54446">
        <ele>252.754654</ele>
        <time>2013-03-07T08:34:39Z</time>
      </trkpt>
      <trkpt lat="43.74054" lon="3.54446">
        <ele>252.763306</ele>
        <time>2013-03-07T08:34:45Z</time>
      </trkpt>
      <trkpt lat="43.74073" lon="3.54442">
        <ele>253.673111</ele>
        <time>2013-03-07T08:35:01Z</time>
      </trkpt>
      <trkpt lat="43.74074" lon="3.5444">
        <ele>253.919846</ele>
        <time>2013-03-07T08:35:03Z</time>
      </trkpt>
      <trkpt lat="43.74079" lon="3.54423">
        <ele>255.662018</ele>
        <time>2013-03-07T08:35:19Z</time>
      </trkpt>
      <trkpt lat="43.7408" lon="3.54417">
        <ele>256.348633</ele>
        <time>2013-03-07T08:35:23Z</time>
      </trkpt>
      <trkpt lat="43.74081" lon="3.54388">
        <ele>260.55249</ele>
        <time>2013-03-07T08:35:41Z</time>
      </trkpt>
      <trkpt lat="43.74088" lon="3.5438">
        <ele>260.11499</ele>
        <time>2013-03-07T08:35:53Z</time>
      </trkpt>
      <trkpt lat="43.74093" lon="3.54373">
        <ele>261.584991</ele>
        <time>2013-03-07T08:36:06Z</time>
      </trkpt>
      <trkpt lat="43.74097" lon="3.54373">
        <ele>262.075775</ele>
        <time>2013-03-07T08:37:04Z</time>
      </trkpt>
      <trkpt lat="43.74092" lon="3.5436">
        <ele>262.878937</ele>
        <time>2013-03-07T08:37:48Z</time>
      </trkpt>
      <trkpt lat="43.74106" lon="3.54347">
        <ele>265.423798</ele>
        <time>2013-03-07T08:38:09Z</time>
      </trkpt>
      <trkpt lat="43.74117" lon="3.5432">
        <ele>268.074219</ele>
        <time>2013-03-07T08:38:34Z</time>
      </trkpt>
      <trkpt lat="43.74124" lon="3.54317">
        <ele>267.095886</ele>
        <time>2013-03-07T08:38:50Z</time>
      </trkpt>
      <trkpt lat="43.74133" lon="3.54333">
        <ele>265.601563</ele>
        <time>2013-03-07T08:39:16Z</time>
      </trkpt>
      <trkpt lat="43.74135" lon="3.54328">
        <ele>266.308472</ele>
        <time>2013-03-07T08:39:30Z</time>
      </trkpt>
      <trkpt lat="43.74141" lon="3.54319">
        <ele>267.964874</ele>
        <time>2013-03-07T08:39:43Z</time>
      </trkpt>
      <trkpt lat="43.74148" lon="3.54324">
        <ele>269.996094</ele>
        <time>2013-03-07T08:39:56Z</time>
      </trkpt>
      <trkpt lat="43.74154" lon="3.54335">
        <ele>271.715942</ele>
        <time>2013-03-07T08:40:13Z</time>
      </trkpt>
      <trkpt lat="43.7416" lon="3.54336">
        <ele>273.401611</ele>
        <time>2013-03-07T08:40:30Z</time>
      </trkpt>
      <trkpt lat="43.74165" lon="3.54329">
        <ele>274.716125</ele>
        <time>2013-03-07T08:40:40Z</time>
      </trkpt>
      <trkpt lat="43.74178" lon="3.54311">
        <ele>277.529755</ele>
        <time>2013-03-07T08:41:00Z</time>
      </trkpt>
      <trkpt lat="43.74189" lon="3.54309">
        <ele>281.343506</ele>
        <time>2013-03-07T08:41:19Z</time>
      </trkpt>
      <trkpt lat="43.7419" lon="3.54322">
        <ele>282.359436</ele>
        <time>2013-03-07T08:41:33Z</time>
      </trkpt>
      <trkpt lat="43.74191" lon="3.54342">
        <ele>283.505096</ele>
        <time>2013-03-07T08:41:52Z</time>
      </trkpt>
      <trkpt lat="43.74193" lon="3.54357">
        <ele>285.138092</ele>
        <time>2013-03-07T08:42:06Z</time>
      </trkpt>
      <trkpt lat="43.742" lon="3.54364">
        <ele>288.016174</ele>
        <time>2013-03-07T08:42:15Z</time>
      </trkpt>
      <trkpt lat="43.74199" lon="3.54371">
        <ele>288.085358</ele>
        <time>2013-03-07T08:42:21Z</time>
      </trkpt>
      <trkpt lat="43.74199" lon="3.54375">
        <ele>288.309967</ele>
        <time>2013-03-07T08:42:24Z</time>
      </trkpt>
      <trkpt lat="43.74199" lon="3.54399">
        <ele>289.389984</ele>
        <time>2013-03-07T08:42:43Z</time>
      </trkpt>
      <trkpt lat="43.74198" lon="3.54402">
        <ele>289.184296</ele>
        <time>2013-03-07T08:42:45Z</time>
      </trkpt>
      <trkpt lat="43.74192" lon="3.5442">
        <ele>288.309814</ele>
        <time>2013-03-07T08:43:00Z</time>
      </trkpt>
      <trkpt lat="43.74199" lon="3.5443">
        <ele>290.753937</ele>
        <time>2013-03-07T08:43:20Z</time>
      </trkpt>
      <trkpt lat="43.74211" lon="3.54414">
        <ele>294.210541</ele>
        <time>2013-03-07T08:43:41Z</time>
      </trkpt>
      <trkpt lat="43.74221" lon="3.54395">
        <ele>297.040588</ele>
        <time>2013-03-07T08:44:06Z</time>
      </trkpt>
      <trkpt lat="43.74227" lon="3.54386">
        <ele>298.678436</ele>
        <time>2013-03-07T08:44:18Z</time>
      </trkpt>
      <trkpt lat="43.74229" lon="3.54376">
        <ele>299.206879</ele>
        <time>2013-03-07T08:44:34Z</time>
      </trkpt>
      <trkpt lat="43.74233" lon="3.54366">
        <ele>300.043335</ele>
        <time>2013-03-07T08:44:42Z</time>
      </trkpt>
      <trkpt lat="43.74235" lon="3.54351">
        <ele>300.107666</ele>
        <time>2013-03-07T08:44:52Z</time>
      </trkpt>
      <trkpt lat="43.74237" lon="3.54341">
        <ele>300.306885</ele>
        <time>2013-03-07T08:45:06Z</time>
      </trkpt>
      <trkpt lat="43.74243" lon="3.54335">
        <ele>302.250092</ele>
        <time>2013-03-07T08:45:18Z</time>
      </trkpt>
      <trkpt lat="43.74248" lon="3.5432">
        <ele>303.297119</ele>
        <time>2013-03-07T08:45:34Z</time>
      </trkpt>
      <trkpt lat="43.74252" lon="3.5431">
        <ele>304.535461</ele>
        <time>2013-03-07T08:45:48Z</time>
      </trkpt>
      <trkpt lat="43.74257" lon="3.54299">
        <ele>305.662384</ele>
        <time>2013-03-07T08:46:01Z</time>
      </trkpt>
      <trkpt lat="43.74267" lon="3.54283">
        <ele>307.710602</ele>
        <time>2013-03-07T08:46:22Z</time>
      </trkpt>
      <trkpt lat="43.74275" lon="3.54266">
        <ele>308.5495</ele>
        <time>2013-03-07T08:46:43Z</time>
      </trkpt>
      <trkpt lat="43.74288" lon="3.54252">
        <ele>311.300751</ele>
        <time>2013-03-07T08:47:04Z</time>
      </trkpt>
      <trkpt lat="43.74297" lon="3.54241">
        <ele>313.435242</ele>
        <time>2013-03-07T08:47:21Z</time>
      </trkpt>
      <trkpt lat="43.74307" lon="3.54233">
        <ele>316.039001</ele>
        <time>2013-03-07T08:47:38Z</time>
      </trkpt>
      <trkpt lat="43.74322" lon="3.54228">
        <ele>319.064056</ele>
        <time>2013-03-07T08:47:58Z</time>
      </trkpt>
      <trkpt lat="43.74322" lon="3.54227">
        <ele>318.919739</ele>
        <time>2013-03-07T08:47:59Z</time>
      </trkpt>
      <trkpt lat="43.74326" lon="3.5422">
        <ele>318.93869</ele>
        <time>2013-03-07T08:48:13Z</time>
      </trkpt>
      <trkpt lat="43.74333" lon="3.54225">
        <ele>320.309082</ele>
        <time>2013-03-07T08:49:00Z</time>
      </trkpt>
      <trkpt lat="43.74338" lon="3.54206">
        <ele>319.866241</ele>
        <time>2013-03-07T08:50:52Z</time>
      </trkpt>
      <trkpt lat="43.7434" lon="3.54205">
        <ele>319.989136</ele>
        <time>2013-03-07T08:50:53Z</time>
      </trkpt>
      <trkpt lat="43.74362" lon="3.54191">
        <ele>323.355011</ele>
        <time>2013-03-07T08:51:24Z</time>
      </trkpt>
      <trkpt lat="43.74386" lon="3.54195">
        <ele>323.990631</ele>
        <time>2013-03-07T08:51:53Z</time>
      </trkpt>
      <trkpt lat="43.74397" lon="3.54177">
        <ele>326.522614</ele>
        <time>2013-03-07T08:52:14Z</time>
      </trkpt>
      <trkpt lat="43.74405" lon="3.54157">
        <ele>331.035187</ele>
        <time>2013-03-07T08:52:40Z</time>
      </trkpt>
      <trkpt lat="43.74389" lon="3.54127">
        <ele>334.043365</ele>
        <time>2013-03-07T08:53:13Z</time>
      </trkpt>
      <trkpt lat="43.74387" lon="3.54111">
        <ele>337.100555</ele>
        <time>2013-03-07T08:53:38Z</time>
      </trkpt>
      <trkpt lat="43.74388" lon="3.54096">
        <ele>342.117218</ele>
        <time>2013-03-07T08:54:02Z</time>
      </trkpt>
      <trkpt lat="43.74377" lon="3.54082">
        <ele>343.957123</ele>
        <time>2013-03-07T08:54:23Z</time>
      </trkpt>
      <trkpt lat="43.74369" lon="3.54069">
        <ele>346.248383</ele>
        <time>2013-03-07T08:54:40Z</time>
      </trkpt>
      <trkpt lat="43.74366" lon="3.54062">
        <ele>347.502228</ele>
        <time>2013-03-07T08:55:00Z</time>
      </trkpt>
      <trkpt lat="43.7436" lon="3.54055">
        <ele>348.421387</ele>
        <time>2013-03-07T08:55:19Z</time>
      </trkpt>
      <trkpt lat="43.7436" lon="3.54051">
        <ele>349.51297</ele>
        <time>2013-03-07T08:55:44Z</time>
      </trkpt>
      <trkpt lat="43.74353" lon="3.5404">
        <ele>349.94574</ele>
        <time>2013-03-07T08:55:55Z</time>
      </trkpt>
      <trkpt lat="43.74339" lon="3.54037">
        <ele>346.637238</ele>
        <time>2013-03-07T08:56:11Z</time>
      </trkpt>
      <trkpt lat="43.74335" lon="3.54032">
        <ele>346.678741</ele>
        <time>2013-03-07T08:56:29Z</time>
      </trkpt>
      <trkpt lat="43.74335" lon="3.54025">
        <ele>348.497559</ele>
        <time>2013-03-07T08:56:41Z</time>
      </trkpt>
      <trkpt lat="43.74333" lon="3.54006">
        <ele>352.504486</ele>
        <time>2013-03-07T08:56:57Z</time>
      </trkpt>
      <trkpt lat="43.74318" lon="3.53978">
        <ele>353.542511</ele>
        <time>2013-03-07T08:57:22Z</time>
      </trkpt>
      <trkpt lat="43.74321" lon="3.53982">
        <ele>353.903748</ele>
        <time>2013-03-07T08:57:37Z</time>
      </trkpt>
      <trkpt lat="43.74333" lon="3.53977">
        <ele>357.231262</ele>
        <time>2013-03-07T08:57:56Z</time>
      </trkpt>
      <trkpt lat="43.74321" lon="3.5396">
        <ele>355.567505</ele>
        <time>2013-03-07T08:58:17Z</time>
      </trkpt>
      <trkpt lat="43.7431" lon="3.53956">
        <ele>353.195984</ele>
        <time>2013-03-07T08:58:33Z</time>
      </trkpt>
      <trkpt lat="43.74317" lon="3.53942">
        <ele>356.098755</ele>
        <time>2013-03-07T08:58:58Z</time>
      </trkpt>
      <trkpt lat="43.74329" lon="3.53925">
        <ele>359.418396</ele>
        <time>2013-03-07T08:59:20Z</time>
      </trkpt>
      <trkpt lat="43.74345" lon="3.53916">
        <ele>362.135925</ele>
        <time>2013-03-07T08:59:38Z</time>
      </trkpt>
      <trkpt lat="43.74354" lon="3.53903">
        <ele>362.630615</ele>
        <time>2013-03-07T08:59:53Z</time>
      </trkpt>
      <trkpt lat="43.74368" lon="3.53884">
        <ele>363.959503</ele>
        <time>2013-03-07T09:00:13Z</time>
      </trkpt>
      <trkpt lat="43.74372" lon="3.53876">
        <ele>364.020233</ele>
        <time>2013-03-07T09:00:21Z</time>
      </trkpt>
      <trkpt lat="43.74376" lon="3.53862">
        <ele>363.626831</ele>
        <time>2013-03-07T09:00:31Z</time>
      </trkpt>
      <trkpt lat="43.74389" lon="3.53847">
        <ele>365.492004</ele>
        <time>2013-03-07T09:00:49Z</time>
      </trkpt>
      <trkpt lat="43.74406" lon="3.53841">
        <ele>369.06134</ele>
        <time>2013-03-07T09:01:11Z</time>
      </trkpt>
      <trkpt lat="43.7442" lon="3.53829">
        <ele>371.582306</ele>
        <time>2013-03-07T09:01:30Z</time>
      </trkpt>
      <trkpt lat="43.74437" lon="3.53822">
        <ele>374.786743</ele>
        <time>2013-03-07T09:01:53Z</time>
      </trkpt>
      <trkpt lat="43.74442" lon="3.53817">
        <ele>375.385651</ele>
        <time>2013-03-07T09:02:04Z</time>
      </trkpt>
      <trkpt lat="43.74456" lon="3.53804">
        <ele>377.12442</ele>
        <time>2013-03-07T09:02:27Z</time>
      </trkpt>
      <trkpt lat="43.74464" lon="3.53795">
        <ele>378.890961</ele>
        <time>2013-03-07T09:02:38Z</time>
      </trkpt>
      <trkpt lat="43.74465" lon="3.53781">
        <ele>378.527802</ele>
        <time>2013-03-07T09:02:47Z</time>
      </trkpt>
      <trkpt lat="43.74467" lon="3.53763">
        <ele>378.134094</ele>
        <time>2013-03-07T09:03:04Z</time>
      </trkpt>
      <trkpt lat="43.74461" lon="3.53749">
        <ele>375.365112</ele>
        <time>2013-03-07T09:03:23Z</time>
      </trkpt>
      <trkpt lat="43.74456" lon="3.5373">
        <ele>378.117188</ele>
        <time>2013-03-07T09:03:43Z</time>
      </trkpt>
      <trkpt lat="43.74448" lon="3.53725">
        <ele>378.803406</ele>
        <time>2013-03-07T09:03:59Z</time>
      </trkpt>
      <trkpt lat="43.74447" lon="3.53724">
        <ele>379.209534</ele>
        <time>2013-03-07T09:04:01Z</time>
      </trkpt>
      <trkpt lat="43.74437" lon="3.53726">
        <ele>378.051636</ele>
        <time>2013-03-07T09:04:11Z</time>
      </trkpt>
      <trkpt lat="43.74426" lon="3.5372">
        <ele>379.77597</ele>
        <time>2013-03-07T09:04:28Z</time>
      </trkpt>
      <trkpt lat="43.74423" lon="3.53719">
        <ele>379.942627</ele>
        <time>2013-03-07T09:04:33Z</time>
      </trkpt>
      <trkpt lat="43.74408" lon="3.53709">
        <ele>382.631836</ele>
        <time>2013-03-07T09:04:55Z</time>
      </trkpt>
      <trkpt lat="43.74403" lon="3.53699">
        <ele>385.043182</ele>
        <time>2013-03-07T09:05:10Z</time>
      </trkpt>
      <trkpt lat="43.74401" lon="3.53684">
        <ele>389.74884</ele>
        <time>2013-03-07T09:05:28Z</time>
      </trkpt>
      <trkpt lat="43.74414" lon="3.53684">
        <ele>391.480865</ele>
        <time>2013-03-07T09:05:48Z</time>
      </trkpt>
      <trkpt lat="43.74413" lon="3.53686">
        <ele>390.700012</ele>
        <time>2013-03-07T09:06:06Z</time>
      </trkpt>
      <trkpt lat="43.74415" lon="3.53682">
        <ele>391.89624</ele>
        <time>2013-03-07T09:06:26Z</time>
      </trkpt>
      <trkpt lat="43.74422" lon="3.53692">
        <ele>388.886719</ele>
        <time>2013-03-07T09:06:40Z</time>
      </trkpt>
      <trkpt lat="43.74429" lon="3.53687">
        <ele>390.668701</ele>
        <time>2013-03-07T09:07:01Z</time>
      </trkpt>
      <trkpt lat="43.74434" lon="3.53687">
        <ele>390.509369</ele>
        <time>2013-03-07T09:07:06Z</time>
      </trkpt>
      <trkpt lat="43.74441" lon="3.53681">
        <ele>392.586304</ele>
        <time>2013-03-07T09:07:16Z</time>
      </trkpt>
      <trkpt lat="43.7446" lon="3.53671">
        <ele>396.431244</ele>
        <time>2013-03-07T09:07:39Z</time>
      </trkpt>
      <trkpt lat="43.74475" lon="3.53658">
        <ele>400.268494</ele>
        <time>2013-03-07T09:08:01Z</time>
      </trkpt>
      <trkpt lat="43.74493" lon="3.53647">
        <ele>402.688019</ele>
        <time>2013-03-07T09:08:28Z</time>
      </trkpt>
      <trkpt lat="43.74496" lon="3.53641">
        <ele>404.339722</ele>
        <time>2013-03-07T09:08:50Z</time>
      </trkpt>
      <trkpt lat="43.74497" lon="3.53638">
        <ele>405.224121</ele>
        <time>2013-03-07T09:08:56Z</time>
      </trkpt>
      <trkpt lat="43.74503" lon="3.53634">
        <ele>406.385223</ele>
        <time>2013-03-07T09:09:12Z</time>
      </trkpt>
      <trkpt lat="43.74517" lon="3.53622">
        <ele>409.212494</ele>
        <time>2013-03-07T09:09:34Z</time>
      </trkpt>
      <trkpt lat="43.74523" lon="3.53618">
        <ele>410.346161</ele>
        <time>2013-03-07T09:09:42Z</time>
      </trkpt>
      <trkpt lat="43.74529" lon="3.53609">
        <ele>413.165497</ele>
        <time>2013-03-07T09:09:58Z</time>
      </trkpt>
      <trkpt lat="43.74528" lon="3.53609">
        <ele>413.081238</ele>
        <time>2013-03-07T09:09:59Z</time>
      </trkpt>
      <trkpt lat="43.74509" lon="3.53608">
        <ele>414.991913</ele>
        <time>2013-03-07T09:10:24Z</time>
      </trkpt>
      <trkpt lat="43.74487" lon="3.53611">
        <ele>415.646454</ele>
        <time>2013-03-07T09:10:47Z</time>
      </trkpt>
      <trkpt lat="43.74466" lon="3.53616">
        <ele>415.846191</ele>
        <time>2013-03-07T09:11:09Z</time>
      </trkpt>
      <trkpt lat="43.74452" lon="3.53612">
        <ele>417.637451</ele>
        <time>2013-03-07T09:11:30Z</time>
      </trkpt>
      <trkpt lat="43.74447" lon="3.53612">
        <ele>416.963898</ele>
        <time>2013-03-07T09:11:46Z</time>
      </trkpt>
      <trkpt lat="43.74463" lon="3.53611">
        <ele>417.901886</ele>
        <time>2013-03-07T09:12:17Z</time>
      </trkpt>
      <trkpt lat="43.74489" lon="3.53595">
        <ele>421.886536</ele>
        <time>2013-03-07T09:12:51Z</time>
      </trkpt>
      <trkpt lat="43.74505" lon="3.5358">
        <ele>426.337463</ele>
        <time>2013-03-07T09:13:18Z</time>
      </trkpt>
      <trkpt lat="43.74519" lon="3.53567">
        <ele>429.000275</ele>
        <time>2013-03-07T09:13:40Z</time>
      </trkpt>
      <trkpt lat="43.74532" lon="3.53549">
        <ele>434.663605</ele>
        <time>2013-03-07T09:14:00Z</time>
      </trkpt>
      <trkpt lat="43.74541" lon="3.5354">
        <ele>437.60025</ele>
        <time>2013-03-07T09:14:22Z</time>
      </trkpt>
      <trkpt lat="43.74557" lon="3.53526">
        <ele>442.302551</ele>
        <time>2013-03-07T09:14:48Z</time>
      </trkpt>
      <trkpt lat="43.74569" lon="3.53512">
        <ele>445.71759</ele>
        <time>2013-03-07T09:15:13Z</time>
      </trkpt>
      <trkpt lat="43.74578" lon="3.53501">
        <ele>447.637909</ele>
        <time>2013-03-07T09:15:30Z</time>
      </trkpt>
      <trkpt lat="43.74587" lon="3.53497">
        <ele>447.001343</ele>
        <time>2013-03-07T09:15:49Z</time>
      </trkpt>
      <trkpt lat="43.74597" lon="3.53486">
        <ele>452.921387</ele>
        <time>2013-03-07T09:16:05Z</time>
      </trkpt>
      <trkpt lat="43.74607" lon="3.53482">
        <ele>455.830505</ele>
        <time>2013-03-07T09:16:29Z</time>
      </trkpt>
      <trkpt lat="43.74623" lon="3.53484">
        <ele>456.660278</ele>
        <time>2013-03-07T09:16:54Z</time>
      </trkpt>
      <trkpt lat="43.74632" lon="3.53486">
        <ele>457.039581</ele>
        <time>2013-03-07T09:17:09Z</time>
      </trkpt>
      <trkpt lat="43.74641" lon="3.53497">
        <ele>456.46875</ele>
        <time>2013-03-07T09:17:30Z</time>
      </trkpt>
      <trkpt lat="43.74649" lon="3.535">
        <ele>458.998444</ele>
        <time>2013-03-07T09:17:44Z</time>
      </trkpt>
      <trkpt lat="43.7465" lon="3.53507">
        <ele>457.893707</ele>
        <time>2013-03-07T09:17:47Z</time>
      </trkpt>
      <trkpt lat="43.74656" lon="3.53519">
        <ele>458.505066</ele>
        <time>2013-03-07T09:18:02Z</time>
      </trkpt>
      <trkpt lat="43.74662" lon="3.5352">
        <ele>461.189423</ele>
        <time>2013-03-07T09:18:11Z</time>
      </trkpt>
      <trkpt lat="43.74674" lon="3.53528">
        <ele>465.348267</ele>
        <time>2013-03-07T09:18:30Z</time>
      </trkpt>
      <trkpt lat="43.74678" lon="3.53531">
        <ele>466.868347</ele>
        <time>2013-03-07T09:18:45Z</time>
      </trkpt>
      <trkpt lat="43.74671" lon="3.53523">
        <ele>464.45108</ele>
        <time>2013-03-07T09:19:03Z</time>
      </trkpt>
      <trkpt lat="43.74663" lon="3.53511">
        <ele>463.000946</ele>
        <time>2013-03-07T09:19:22Z</time>
      </trkpt>
      <trkpt lat="43.74665" lon="3.53503">
        <ele>464.965637</ele>
        <time>2013-03-07T09:19:41Z</time>
      </trkpt>
      <trkpt lat="43.74662" lon="3.5349">
        <ele>467.096375</ele>
        <time>2013-03-07T09:20:02Z</time>
      </trkpt>
      <trkpt lat="43.74656" lon="3.53495">
        <ele>463.290314</ele>
        <time>2013-03-07T09:20:46Z</time>
      </trkpt>
      <trkpt lat="43.74656" lon="3.53492">
        <ele>463.899292</ele>
        <time>2013-03-07T09:21:02Z</time>
      </trkpt>
      <trkpt lat="43.74659" lon="3.53486">
        <ele>466.837097</ele>
        <time>2013-03-07T09:21:16Z</time>
      </trkpt>
      <trkpt lat="43.74665" lon="3.53489">
        <ele>468.791565</ele>
        <time>2013-03-07T09:21:23Z</time>
      </trkpt>
      <trkpt lat="43.74681" lon="3.53499">
        <ele>472.806091</ele>
        <time>2013-03-07T09:21:45Z</time>
      </trkpt>
      <trkpt lat="43.74679" lon="3.5349">
        <ele>474.115601</ele>
        <time>2013-03-07T09:21:57Z</time>
      </trkpt>
      <trkpt lat="43.74668" lon="3.53472">
        <ele>474.526123</ele>
        <time>2013-03-07T09:22:16Z</time>
      </trkpt>
      <trkpt lat="43.74661" lon="3.53462">
        <ele>474.50882</ele>
        <time>2013-03-07T09:22:31Z</time>
      </trkpt>
      <trkpt lat="43.7466" lon="3.53442">
        <ele>479.885956</ele>
        <time>2013-03-07T09:22:48Z</time>
      </trkpt>
      <trkpt lat="43.74659" lon="3.5342">
        <ele>483.664063</ele>
        <time>2013-03-07T09:23:06Z</time>
      </trkpt>
      <trkpt lat="43.74655" lon="3.53396">
        <ele>487.066711</ele>
        <time>2013-03-07T09:23:27Z</time>
      </trkpt>
      <trkpt lat="43.74662" lon="3.53395">
        <ele>488.738281</ele>
        <time>2013-03-07T09:23:39Z</time>
      </trkpt>
      <trkpt lat="43.74665" lon="3.53389">
        <ele>490.347168</ele>
        <time>2013-03-07T09:23:54Z</time>
      </trkpt>
      <trkpt lat="43.7466" lon="3.53369">
        <ele>491.623444</ele>
        <time>2013-03-07T09:24:12Z</time>
      </trkpt>
      <trkpt lat="43.74657" lon="3.53348">
        <ele>491.812256</ele>
        <time>2013-03-07T09:24:30Z</time>
      </trkpt>
      <trkpt lat="43.74655" lon="3.53348">
        <ele>491.688507</ele>
        <time>2013-03-07T09:24:33Z</time>
      </trkpt>
      <trkpt lat="43.7465" lon="3.53336">
        <ele>492.101746</ele>
        <time>2013-03-07T09:24:48Z</time>
      </trkpt>
      <trkpt lat="43.74649" lon="3.53317">
        <ele>493.174194</ele>
        <time>2013-03-07T09:25:03Z</time>
      </trkpt>
      <trkpt lat="43.74647" lon="3.53311">
        <ele>492.638977</ele>
        <time>2013-03-07T09:25:14Z</time>
      </trkpt>
      <trkpt lat="43.74645" lon="3.53293">
        <ele>490.021545</ele>
        <time>2013-03-07T09:25:32Z</time>
      </trkpt>
      <trkpt lat="43.74646" lon="3.53262">
        <ele>485.078888</ele>
        <time>2013-03-07T09:25:53Z</time>
      </trkpt>
      <trkpt lat="43.7465" lon="3.53236">
        <ele>480.207489</ele>
        <time>2013-03-07T09:26:10Z</time>
      </trkpt>
      <trkpt lat="43.7465" lon="3.53232">
        <ele>479.690002</ele>
        <time>2013-03-07T09:26:12Z</time>
      </trkpt>
      <trkpt lat="43.74646" lon="3.53212">
        <ele>477.563751</ele>
        <time>2013-03-07T09:26:20Z</time>
      </trkpt>
      <trkpt lat="43.74643" lon="3.53206">
        <ele>477.27124</ele>
        <time>2013-03-07T09:26:24Z</time>
      </trkpt>
      <trkpt lat="43.74628" lon="3.53186">
        <ele>479.919342</ele>
        <time>2013-03-07T09:26:41Z</time>
      </trkpt>
      <trkpt lat="43.7463" lon="3.53177">
        <ele>478.955231</ele>
        <time>2013-03-07T09:27:02Z</time>
      </trkpt>
      <trkpt lat="43.74641" lon="3.53177">
        <ele>474.998718</ele>
        <time>2013-03-07T09:27:27Z</time>
      </trkpt>
      <trkpt lat="43.74639" lon="3.53175">
        <ele>475.422607</ele>
        <time>2013-03-07T09:27:28Z</time>
      </trkpt>
      <trkpt lat="43.74646" lon="3.53143">
        <ele>472.114777</ele>
        <time>2013-03-07T09:27:45Z</time>
      </trkpt>
      <trkpt lat="43.7465" lon="3.53111">
        <ele>470.732208</ele>
        <time>2013-03-07T09:28:02Z</time>
      </trkpt>
      <trkpt lat="43.74651" lon="3.53091">
        <ele>470.881409</ele>
        <time>2013-03-07T09:28:13Z</time>
      </trkpt>
      <trkpt lat="43.7464" lon="3.53028">
        <ele>474.475189</ele>
        <time>2013-03-07T09:28:46Z</time>
      </trkpt>
      <trkpt lat="43.74642" lon="3.52984">
        <ele>475.963348</ele>
        <time>2013-03-07T09:29:10Z</time>
      </trkpt>
      <trkpt lat="43.74648" lon="3.52981">
        <ele>475.826752</ele>
        <time>2013-03-07T09:29:15Z</time>
      </trkpt>
      <trkpt lat="43.74682" lon="3.52976">
        <ele>474.520813</ele>
        <time>2013-03-07T09:29:42Z</time>
      </trkpt>
      <trkpt lat="43.7472" lon="3.52986">
        <ele>472.512695</ele>
        <time>2013-03-07T09:30:15Z</time>
      </trkpt>
      <trkpt lat="43.74723" lon="3.52984">
        <ele>472.779724</ele>
        <time>2013-03-07T09:30:18Z</time>
      </trkpt>
      <trkpt lat="43.74733" lon="3.52976">
        <ele>473.89975</ele>
        <time>2013-03-07T09:30:28Z</time>
      </trkpt>
      <trkpt lat="43.74741" lon="3.52963">
        <ele>475.535095</ele>
        <time>2013-03-07T09:30:38Z</time>
      </trkpt>
      <trkpt lat="43.7476" lon="3.52952">
        <ele>476.915588</ele>
        <time>2013-03-07T09:30:59Z</time>
      </trkpt>
      <trkpt lat="43.74789" lon="3.5296">
        <ele>473.767334</ele>
        <time>2013-03-07T09:31:26Z</time>
      </trkpt>
      <trkpt lat="43.74802" lon="3.52966">
        <ele>471.677429</ele>
        <time>2013-03-07T09:31:35Z</time>
      </trkpt>
      <trkpt lat="43.74818" lon="3.52961">
        <ele>471.144012</ele>
        <time>2013-03-07T09:31:49Z</time>
      </trkpt>
      <trkpt lat="43.74821" lon="3.52917">
        <ele>473.723419</ele>
        <time>2013-03-07T09:32:14Z</time>
      </trkpt>
      <trkpt lat="43.74819" lon="3.52871">
        <ele>472.669128</ele>
        <time>2013-03-07T09:32:38Z</time>
      </trkpt>
      <trkpt lat="43.74809" lon="3.52843">
        <ele>470.119904</ele>
        <time>2013-03-07T09:32:57Z</time>
      </trkpt>
      <trkpt lat="43.74783" lon="3.52823">
        <ele>472.290741</ele>
        <time>2013-03-07T09:33:26Z</time>
      </trkpt>
      <trkpt lat="43.7477" lon="3.52824">
        <ele>475.310974</ele>
        <time>2013-03-07T09:33:34Z</time>
      </trkpt>
      <trkpt lat="43.74735" lon="3.52804">
        <ele>477.968323</ele>
        <time>2013-03-07T09:33:59Z</time>
      </trkpt>
      <trkpt lat="43.74701" lon="3.52776">
        <ele>478.415497</ele>
        <time>2013-03-07T09:34:29Z</time>
      </trkpt>
      <trkpt lat="43.74682" lon="3.52762">
        <ele>476.961182</ele>
        <time>2013-03-07T09:34:46Z</time>
      </trkpt>
      <trkpt lat="43.74668" lon="3.52757">
        <ele>476.083984</ele>
        <time>2013-03-07T09:34:57Z</time>
      </trkpt>
      <trkpt lat="43.74649" lon="3.52751">
        <ele>475.747437</ele>
        <time>2013-03-07T09:35:10Z</time>
      </trkpt>
      <trkpt lat="43.74645" lon="3.52748">
        <ele>475.210388</ele>
        <time>2013-03-07T09:35:13Z</time>
      </trkpt>
      <trkpt lat="43.74632" lon="3.52735">
        <ele>473.655884</ele>
        <time>2013-03-07T09:35:24Z</time>
      </trkpt>
      <trkpt lat="43.74619" lon="3.5272">
        <ele>472.179199</ele>
        <time>2013-03-07T09:35:36Z</time>
      </trkpt>
      <trkpt lat="43.74617" lon="3.52719">
        <ele>472.242523</ele>
        <time>2013-03-07T09:35:38Z</time>
      </trkpt>
      <trkpt lat="43.74601" lon="3.52704">
        <ele>472.199066</ele>
        <time>2013-03-07T09:35:54Z</time>
      </trkpt>
      <trkpt lat="43.74595" lon="3.52693">
        <ele>472.424652</ele>
        <time>2013-03-07T09:36:00Z</time>
      </trkpt>
      <trkpt lat="43.74588" lon="3.52679">
        <ele>474.770569</ele>
        <time>2013-03-07T09:36:10Z</time>
      </trkpt>
      <trkpt lat="43.74583" lon="3.5264">
        <ele>475.051208</ele>
        <time>2013-03-07T09:36:32Z</time>
      </trkpt>
      <trkpt lat="43.74584" lon="3.52635">
        <ele>474.395416</ele>
        <time>2013-03-07T09:36:35Z</time>
      </trkpt>
      <trkpt lat="43.74582" lon="3.52611">
        <ele>474.787506</ele>
        <time>2013-03-07T09:36:48Z</time>
      </trkpt>
      <trkpt lat="43.7458" lon="3.52603">
        <ele>475.712494</ele>
        <time>2013-03-07T09:36:53Z</time>
      </trkpt>
      <trkpt lat="43.7458" lon="3.52599">
        <ele>475.714996</ele>
        <time>2013-03-07T09:36:55Z</time>
      </trkpt>
      <trkpt lat="43.74579" lon="3.52594">
        <ele>475.837494</ele>
        <time>2013-03-07T09:36:59Z</time>
      </trkpt>
      <trkpt lat="43.74575" lon="3.52589">
        <ele>478.005005</ele>
        <time>2013-03-07T09:37:02Z</time>
      </trkpt>
      <trkpt lat="43.74573" lon="3.52563">
        <ele>478.69812</ele>
        <time>2013-03-07T09:37:18Z</time>
      </trkpt>
      <trkpt lat="43.74577" lon="3.52524">
        <ele>477.589081</ele>
        <time>2013-03-07T09:37:42Z</time>
      </trkpt>
      <trkpt lat="43.74576" lon="3.5249">
        <ele>480.507813</ele>
        <time>2013-03-07T09:38:06Z</time>
      </trkpt>
      <trkpt lat="43.7459" lon="3.52465">
        <ele>478.053864</ele>
        <time>2013-03-07T09:38:23Z</time>
      </trkpt>
      <trkpt lat="43.74597" lon="3.5244">
        <ele>478.194153</ele>
        <time>2013-03-07T09:38:47Z</time>
      </trkpt>
      <trkpt lat="43.7461" lon="3.52426">
        <ele>473.661682</ele>
        <time>2013-03-07T09:39:01Z</time>
      </trkpt>
      <trkpt lat="43.74606" lon="3.52413">
        <ele>474.494263</ele>
        <time>2013-03-07T09:39:10Z</time>
      </trkpt>
      <trkpt lat="43.74587" lon="3.52402">
        <ele>481.428864</ele>
        <time>2013-03-07T09:39:29Z</time>
      </trkpt>
      <trkpt lat="43.74566" lon="3.5239">
        <ele>488.709106</ele>
        <time>2013-03-07T09:39:51Z</time>
      </trkpt>
      <trkpt lat="43.74552" lon="3.52366">
        <ele>494.153564</ele>
        <time>2013-03-07T09:40:14Z</time>
      </trkpt>
      <trkpt lat="43.74556" lon="3.52335">
        <ele>491.55661</ele>
        <time>2013-03-07T09:40:37Z</time>
      </trkpt>
      <trkpt lat="43.74568" lon="3.52304">
        <ele>486.557861</ele>
        <time>2013-03-07T09:40:57Z</time>
      </trkpt>
      <trkpt lat="43.74569" lon="3.52302">
        <ele>486.120605</ele>
        <time>2013-03-07T09:40:59Z</time>
      </trkpt>
      <trkpt lat="43.7457" lon="3.52299">
        <ele>485.807343</ele>
        <time>2013-03-07T09:41:01Z</time>
      </trkpt>
      <trkpt lat="43.74571" lon="3.52293">
        <ele>485.81311</ele>
        <time>2013-03-07T09:41:05Z</time>
      </trkpt>
      <trkpt lat="43.74571" lon="3.52291">
        <ele>485.625183</ele>
        <time>2013-03-07T09:41:07Z</time>
      </trkpt>
      <trkpt lat="43.74568" lon="3.52264">
        <ele>488.850311</ele>
        <time>2013-03-07T09:41:25Z</time>
      </trkpt>
      <trkpt lat="43.74568" lon="3.52251">
        <ele>488.037018</ele>
        <time>2013-03-07T09:41:32Z</time>
      </trkpt>
      <trkpt lat="43.74567" lon="3.5224">
        <ele>487.604401</ele>
        <time>2013-03-07T09:41:36Z</time>
      </trkpt>
      <trkpt lat="43.74564" lon="3.52237">
        <ele>488.564636</ele>
        <time>2013-03-07T09:41:39Z</time>
      </trkpt>
      <trkpt lat="43.74565" lon="3.52233">
        <ele>487.62326</ele>
        <time>2013-03-07T09:41:42Z</time>
      </trkpt>
      <trkpt lat="43.74555" lon="3.52208">
        <ele>488.09024</ele>
        <time>2013-03-07T09:42:01Z</time>
      </trkpt>
      <trkpt lat="43.74542" lon="3.52193">
        <ele>486.527496</ele>
        <time>2013-03-07T09:42:19Z</time>
      </trkpt>
      <trkpt lat="43.74539" lon="3.52192">
        <ele>486.546234</ele>
        <time>2013-03-07T09:42:40Z</time>
      </trkpt>
      <trkpt lat="43.74527" lon="3.52195">
        <ele>488.651245</ele>
        <time>2013-03-07T09:42:57Z</time>
      </trkpt>
      <trkpt lat="43.74498" lon="3.52205">
        <ele>490.984009</ele>
        <time>2013-03-07T09:43:22Z</time>
      </trkpt>
      <trkpt lat="43.74481" lon="3.52209">
        <ele>490.28125</ele>
        <time>2013-03-07T09:43:37Z</time>
      </trkpt>
      <trkpt lat="43.74459" lon="3.52211">
        <ele>487.462921</ele>
        <time>2013-03-07T09:43:53Z</time>
      </trkpt>
      <trkpt lat="43.74458" lon="3.52212">
        <ele>487.544952</ele>
        <time>2013-03-07T09:43:54Z</time>
      </trkpt>
      <trkpt lat="43.74437" lon="3.52222">
        <ele>485.703033</ele>
        <time>2013-03-07T09:44:09Z</time>
      </trkpt>
      <trkpt lat="43.74429" lon="3.52228">
        <ele>485.186401</ele>
        <time>2013-03-07T09:44:14Z</time>
      </trkpt>
      <trkpt lat="43.74417" lon="3.5226">
        <ele>490.614868</ele>
        <time>2013-03-07T09:44:32Z</time>
      </trkpt>
      <trkpt lat="43.74401" lon="3.5227">
        <ele>490.046082</ele>
        <time>2013-03-07T09:44:50Z</time>
      </trkpt>
      <trkpt lat="43.74383" lon="3.52277">
        <ele>487.576019</ele>
        <time>2013-03-07T09:45:07Z</time>
      </trkpt>
      <trkpt lat="43.74376" lon="3.52278">
        <ele>486.25</ele>
        <time>2013-03-07T09:45:37Z</time>
      </trkpt>
      <trkpt lat="43.74371" lon="3.52287">
        <ele>486.136383</ele>
        <time>2013-03-07T09:46:04Z</time>
      </trkpt>
      <trkpt lat="43.74369" lon="3.52276">
        <ele>484.856995</ele>
        <time>2013-03-07T09:46:32Z</time>
      </trkpt>
      <trkpt lat="43.74369" lon="3.52274">
        <ele>484.631897</ele>
        <time>2013-03-07T09:47:16Z</time>
      </trkpt>
      <trkpt lat="43.74374" lon="3.52279">
        <ele>486.055176</ele>
        <time>2013-03-07T09:48:12Z</time>
      </trkpt>
      <trkpt lat="43.74371" lon="3.52293">
        <ele>486.773895</ele>
        <time>2013-03-07T09:50:20Z</time>
      </trkpt>
      <trkpt lat="43.74371" lon="3.52309">
        <ele>488.071106</ele>
        <time>2013-03-07T09:50:38Z</time>
      </trkpt>
      <trkpt lat="43.74375" lon="3.52339">
        <ele>488.73999</ele>
        <time>2013-03-07T09:51:03Z</time>
      </trkpt>
      <trkpt lat="43.74375" lon="3.52367">
        <ele>486.721252</ele>
        <time>2013-03-07T09:51:28Z</time>
      </trkpt>
      <trkpt lat="43.74365" lon="3.524">
        <ele>482.617889</ele>
        <time>2013-03-07T09:51:54Z</time>
      </trkpt>
      <trkpt lat="43.74354" lon="3.52417">
        <ele>477.1138</ele>
        <time>2013-03-07T09:52:09Z</time>
      </trkpt>
      <trkpt lat="43.74344" lon="3.5243">
        <ele>471.142456</ele>
        <time>2013-03-07T09:52:22Z</time>
      </trkpt>
      <trkpt lat="43.74346" lon="3.52437">
        <ele>472.06778</ele>
        <time>2013-03-07T09:52:28Z</time>
      </trkpt>
      <trkpt lat="43.74352" lon="3.52453">
        <ele>474.8797</ele>
        <time>2013-03-07T09:52:42Z</time>
      </trkpt>
      <trkpt lat="43.74355" lon="3.52477">
        <ele>474.829407</ele>
        <time>2013-03-07T09:53:02Z</time>
      </trkpt>
      <trkpt lat="43.74354" lon="3.52493">
        <ele>472.41684</ele>
        <time>2013-03-07T09:53:30Z</time>
      </trkpt>
      <trkpt lat="43.74351" lon="3.52485">
        <ele>470.997986</ele>
        <time>2013-03-07T09:54:07Z</time>
      </trkpt>
      <trkpt lat="43.74341" lon="3.52468">
        <ele>465.314484</ele>
        <time>2013-03-07T09:54:26Z</time>
      </trkpt>
      <trkpt lat="43.74339" lon="3.52482">
        <ele>461.736298</ele>
        <time>2013-03-07T09:54:45Z</time>
      </trkpt>
      <trkpt lat="43.74339" lon="3.52494">
        <ele>459.855011</ele>
        <time>2013-03-07T09:54:57Z</time>
      </trkpt>
      <trkpt lat="43.74348" lon="3.52516">
        <ele>462.845001</ele>
        <time>2013-03-07T09:55:17Z</time>
      </trkpt>
      <trkpt lat="43.74347" lon="3.52525">
        <ele>460.295013</ele>
        <time>2013-03-07T09:55:36Z</time>
      </trkpt>
      <trkpt lat="43.74338" lon="3.52508">
        <ele>456.480011</ele>
        <time>2013-03-07T09:55:50Z</time>
      </trkpt>
      <trkpt lat="43.74336" lon="3.52505">
        <ele>455.420013</ele>
        <time>2013-03-07T09:55:53Z</time>
      </trkpt>
      <trkpt lat="43.74331" lon="3.52496">
        <ele>453.190002</ele>
        <time>2013-03-07T09:56:01Z</time>
      </trkpt>
      <trkpt lat="43.74326" lon="3.5249">
        <ele>450.468506</ele>
        <time>2013-03-07T09:56:09Z</time>
      </trkpt>
      <trkpt lat="43.74324" lon="3.52495">
        <ele>448.468109</ele>
        <time>2013-03-07T09:56:17Z</time>
      </trkpt>
      <trkpt lat="43.74324" lon="3.52498">
        <ele>448.147614</ele>
        <time>2013-03-07T09:56:19Z</time>
      </trkpt>
      <trkpt lat="43.74331" lon="3.5251">
        <ele>450.308533</ele>
        <time>2013-03-07T09:56:29Z</time>
      </trkpt>
      <trkpt lat="43.74333" lon="3.52516">
        <ele>450.065002</ele>
        <time>2013-03-07T09:56:34Z</time>
      </trkpt>
      <trkpt lat="43.74343" lon="3.52537">
        <ele>453.255005</ele>
        <time>2013-03-07T09:56:54Z</time>
      </trkpt>
      <trkpt lat="43.74352" lon="3.52564">
        <ele>454.274994</ele>
        <time>2013-03-07T09:57:18Z</time>
      </trkpt>
      <trkpt lat="43.74344" lon="3.52593">
        <ele>444.296082</ele>
        <time>2013-03-07T09:57:39Z</time>
      </trkpt>
      <trkpt lat="43.7434" lon="3.52609">
        <ele>439.043182</ele>
        <time>2013-03-07T09:58:08Z</time>
      </trkpt>
      <trkpt lat="43.74338" lon="3.52613">
        <ele>437.48056</ele>
        <time>2013-03-07T09:59:05Z</time>
      </trkpt>
      <trkpt lat="43.74336" lon="3.52597">
        <ele>437.376709</ele>
        <time>2013-03-07T09:59:24Z</time>
      </trkpt>
      <trkpt lat="43.74335" lon="3.5257">
        <ele>439.449585</ele>
        <time>2013-03-07T09:59:48Z</time>
      </trkpt>
      <trkpt lat="43.74328" lon="3.52569">
        <ele>434.147308</ele>
        <time>2013-03-07T10:00:03Z</time>
      </trkpt>
      <trkpt lat="43.74323" lon="3.52599">
        <ele>428.503906</ele>
        <time>2013-03-07T10:00:25Z</time>
      </trkpt>
      <trkpt lat="43.74322" lon="3.526">
        <ele>427.850098</ele>
        <time>2013-03-07T10:00:26Z</time>
      </trkpt>
      <trkpt lat="43.74317" lon="3.52628">
        <ele>422.731598</ele>
        <time>2013-03-07T10:00:46Z</time>
      </trkpt>
      <trkpt lat="43.74316" lon="3.52633">
        <ele>421.297699</ele>
        <time>2013-03-07T10:00:50Z</time>
      </trkpt>
      <trkpt lat="43.74326" lon="3.52647">
        <ele>424.447937</ele>
        <time>2013-03-07T10:01:03Z</time>
      </trkpt>
      <trkpt lat="43.7433" lon="3.52652">
        <ele>425.734863</ele>
        <time>2013-03-07T10:01:08Z</time>
      </trkpt>
      <trkpt lat="43.7434" lon="3.52675">
        <ele>428.960632</ele>
        <time>2013-03-07T10:01:29Z</time>
      </trkpt>
      <trkpt lat="43.74339" lon="3.52679">
        <ele>427.581238</ele>
        <time>2013-03-07T10:01:32Z</time>
      </trkpt>
      <trkpt lat="43.74339" lon="3.52684">
        <ele>426.401672</ele>
        <time>2013-03-07T10:01:35Z</time>
      </trkpt>
      <trkpt lat="43.74343" lon="3.52725">
        <ele>421.608917</ele>
        <time>2013-03-07T10:02:01Z</time>
      </trkpt>
      <trkpt lat="43.74345" lon="3.52741">
        <ele>420.639771</ele>
        <time>2013-03-07T10:02:14Z</time>
      </trkpt>
      <trkpt lat="43.74351" lon="3.52759">
        <ele>420.019745</ele>
        <time>2013-03-07T10:02:31Z</time>
      </trkpt>
      <trkpt lat="43.7436" lon="3.52777">
        <ele>420.893494</ele>
        <time>2013-03-07T10:02:51Z</time>
      </trkpt>
      <trkpt lat="43.74374" lon="3.52797">
        <ele>423.8349</ele>
        <time>2013-03-07T10:03:10Z</time>
      </trkpt>
      <trkpt lat="43.74372" lon="3.52819">
        <ele>414.642395</ele>
        <time>2013-03-07T10:03:28Z</time>
      </trkpt>
      <trkpt lat="43.74364" lon="3.52818">
        <ele>409.615875</ele>
        <time>2013-03-07T10:03:43Z</time>
      </trkpt>
      <trkpt lat="43.74358" lon="3.5281">
        <ele>408.799835</ele>
        <time>2013-03-07T10:03:59Z</time>
      </trkpt>
      <trkpt lat="43.74348" lon="3.52796">
        <ele>406.37735</ele>
        <time>2013-03-07T10:04:16Z</time>
      </trkpt>
      <trkpt lat="43.74342" lon="3.52791">
        <ele>403.480652</ele>
        <time>2013-03-07T10:04:28Z</time>
      </trkpt>
      <trkpt lat="43.74329" lon="3.52782">
        <ele>396.927399</ele>
        <time>2013-03-07T10:04:46Z</time>
      </trkpt>
      <trkpt lat="43.74321" lon="3.5278">
        <ele>393.151337</ele>
        <time>2013-03-07T10:04:54Z</time>
      </trkpt>
      <trkpt lat="43.74309" lon="3.5277">
        <ele>388.140808</ele>
        <time>2013-03-07T10:05:08Z</time>
      </trkpt>
      <trkpt lat="43.74293" lon="3.52755">
        <ele>381.360321</ele>
        <time>2013-03-07T10:05:27Z</time>
      </trkpt>
      <trkpt lat="43.74289" lon="3.52738">
        <ele>382.793121</ele>
        <time>2013-03-07T10:05:43Z</time>
      </trkpt>
      <trkpt lat="43.74289" lon="3.52737">
        <ele>382.976746</ele>
        <time>2013-03-07T10:05:44Z</time>
      </trkpt>
      <trkpt lat="43.7428" lon="3.5273">
        <ele>379.833252</ele>
        <time>2013-03-07T10:06:05Z</time>
      </trkpt>
      <trkpt lat="43.74289" lon="3.52751">
        <ele>379.761871</ele>
        <time>2013-03-07T10:06:23Z</time>
      </trkpt>
      <trkpt lat="43.7428" lon="3.52736">
        <ele>378.480652</ele>
        <time>2013-03-07T10:06:39Z</time>
      </trkpt>
      <trkpt lat="43.74268" lon="3.52725">
        <ele>375.666046</ele>
        <time>2013-03-07T10:06:55Z</time>
      </trkpt>
      <trkpt lat="43.74248" lon="3.5272">
        <ele>368.360718</ele>
        <time>2013-03-07T10:07:13Z</time>
      </trkpt>
      <trkpt lat="43.74238" lon="3.52711">
        <ele>365.46051</ele>
        <time>2013-03-07T10:07:30Z</time>
      </trkpt>
      <trkpt lat="43.74234" lon="3.52707">
        <ele>364.709625</ele>
        <time>2013-03-07T10:07:35Z</time>
      </trkpt>
      <trkpt lat="43.74226" lon="3.52689">
        <ele>363.812592</ele>
        <time>2013-03-07T10:07:51Z</time>
      </trkpt>
      <trkpt lat="43.74224" lon="3.52675">
        <ele>364.112</ele>
        <time>2013-03-07T10:08:03Z</time>
      </trkpt>
      <trkpt lat="43.74218" lon="3.52656">
        <ele>361.902679</ele>
        <time>2013-03-07T10:08:20Z</time>
      </trkpt>
      <trkpt lat="43.74206" lon="3.52628">
        <ele>356.178101</ele>
        <time>2013-03-07T10:08:43Z</time>
      </trkpt>
      <trkpt lat="43.74204" lon="3.5261">
        <ele>355.403748</ele>
        <time>2013-03-07T10:08:59Z</time>
      </trkpt>
      <trkpt lat="43.74196" lon="3.52573">
        <ele>352.271088</ele>
        <time>2013-03-07T10:09:24Z</time>
      </trkpt>
      <trkpt lat="43.74184" lon="3.5255">
        <ele>349.27774</ele>
        <time>2013-03-07T10:09:43Z</time>
      </trkpt>
      <trkpt lat="43.7418" lon="3.52538">
        <ele>350.14624</ele>
        <time>2013-03-07T10:09:51Z</time>
      </trkpt>
      <trkpt lat="43.74171" lon="3.52504">
        <ele>353.335205</ele>
        <time>2013-03-07T10:10:16Z</time>
      </trkpt>
      <trkpt lat="43.74163" lon="3.52486">
        <ele>354.941498</ele>
        <time>2013-03-07T10:10:35Z</time>
      </trkpt>
      <trkpt lat="43.74144" lon="3.52494">
        <ele>347.642456</ele>
        <time>2013-03-07T10:10:54Z</time>
      </trkpt>
      <trkpt lat="43.74128" lon="3.5251">
        <ele>341.087463</ele>
        <time>2013-03-07T10:11:16Z</time>
      </trkpt>
      <trkpt lat="43.74112" lon="3.52527">
        <ele>334.064331</ele>
        <time>2013-03-07T10:11:40Z</time>
      </trkpt>
      <trkpt lat="43.74098" lon="3.52529">
        <ele>331.435669</ele>
        <time>2013-03-07T10:11:57Z</time>
      </trkpt>
      <trkpt lat="43.7408" lon="3.52528">
        <ele>328.548523</ele>
        <time>2013-03-07T10:12:14Z</time>
      </trkpt>
      <trkpt lat="43.74054" lon="3.52513">
        <ele>324.801788</ele>
        <time>2013-03-07T10:12:37Z</time>
      </trkpt>
      <trkpt lat="43.7405" lon="3.52496">
        <ele>325.717285</ele>
        <time>2013-03-07T10:12:54Z</time>
      </trkpt>
      <trkpt lat="43.74038" lon="3.52484">
        <ele>322.999756</ele>
        <time>2013-03-07T10:13:09Z</time>
      </trkpt>
      <trkpt lat="43.74037" lon="3.5247">
        <ele>325.006805</ele>
        <time>2013-03-07T10:13:27Z</time>
      </trkpt>
      <trkpt lat="43.74024" lon="3.52453">
        <ele>320.475494</ele>
        <time>2013-03-07T10:13:47Z</time>
      </trkpt>
      <trkpt lat="43.74017" lon="3.5243">
        <ele>318.993134</ele>
        <time>2013-03-07T10:14:09Z</time>
      </trkpt>
      <trkpt lat="43.74003" lon="3.52413">
        <ele>312.762512</ele>
        <time>2013-03-07T10:14:29Z</time>
      </trkpt>
      <trkpt lat="43.73994" lon="3.52401">
        <ele>307.897064</ele>
        <time>2013-03-07T10:14:42Z</time>
      </trkpt>
      <trkpt lat="43.73987" lon="3.52391">
        <ele>303.807953</ele>
        <time>2013-03-07T10:14:56Z</time>
      </trkpt>
      <trkpt lat="43.73981" lon="3.5238">
        <ele>299.90625</ele>
        <time>2013-03-07T10:15:07Z</time>
      </trkpt>
      <trkpt lat="43.73979" lon="3.52371">
        <ele>299.296265</ele>
        <time>2013-03-07T10:15:12Z</time>
      </trkpt>
      <trkpt lat="43.73976" lon="3.52351">
        <ele>297.360382</ele>
        <time>2013-03-07T10:15:24Z</time>
      </trkpt>
      <trkpt lat="43.73976" lon="3.52324">
        <ele>298.007507</ele>
        <time>2013-03-07T10:15:46Z</time>
      </trkpt>
      <trkpt lat="43.73986" lon="3.52301">
        <ele>305.52774</ele>
        <time>2013-03-07T10:16:11Z</time>
      </trkpt>
      <trkpt lat="43.73985" lon="3.52269">
        <ele>304.411835</ele>
        <time>2013-03-07T10:16:38Z</time>
      </trkpt>
      <trkpt lat="43.73993" lon="3.52245">
        <ele>308.367493</ele>
        <time>2013-03-07T10:16:59Z</time>
      </trkpt>
      <trkpt lat="43.73961" lon="3.52251">
        <ele>306.472961</ele>
        <time>2013-03-07T10:17:56Z</time>
      </trkpt>
      <trkpt lat="43.73971" lon="3.52246">
        <ele>302.138214</ele>
        <time>2013-03-07T10:18:37Z</time>
      </trkpt>
      <trkpt lat="43.73987" lon="3.52253">
        <ele>305.077179</ele>
        <time>2013-03-07T10:19:04Z</time>
      </trkpt>
      <trkpt lat="43.73987" lon="3.5225">
        <ele>305.113373</ele>
        <time>2013-03-07T10:19:28Z</time>
      </trkpt>
      <trkpt lat="43.7397" lon="3.52246">
        <ele>302.891937</ele>
        <time>2013-03-07T10:19:39Z</time>
      </trkpt>
      <trkpt lat="43.73961" lon="3.52242">
        <ele>308.085785</ele>
        <time>2013-03-07T10:19:50Z</time>
      </trkpt>
      <trkpt lat="43.73969" lon="3.52234">
        <ele>306.243652</ele>
        <time>2013-03-07T10:20:01Z</time>
      </trkpt>
      <trkpt lat="43.73986" lon="3.5222">
        <ele>309.571075</ele>
        <time>2013-03-07T10:20:13Z</time>
      </trkpt>
      <trkpt lat="43.73986" lon="3.5222">
        <ele>309.775238</ele>
        <time>2013-03-07T10:20:35Z</time>
      </trkpt>
      <trkpt lat="43.73992" lon="3.52233">
        <ele>309.28891</ele>
        <time>2013-03-07T10:20:51Z</time>
      </trkpt>
      <trkpt lat="43.73984" lon="3.52249">
        <ele>303.780792</ele>
        <time>2013-03-07T10:21:07Z</time>
      </trkpt>
      <trkpt lat="43.73976" lon="3.52263">
        <ele>299.577728</ele>
        <time>2013-03-07T10:21:28Z</time>
      </trkpt>
      <trkpt lat="43.73965" lon="3.52269">
        <ele>303.136353</ele>
        <time>2013-03-07T10:21:38Z</time>
      </trkpt>
      <trkpt lat="43.73963" lon="3.52273">
        <ele>303.933838</ele>
        <time>2013-03-07T10:21:55Z</time>
      </trkpt>
      <trkpt lat="43.73968" lon="3.52269">
        <ele>302.041962</ele>
        <time>2013-03-07T10:23:24Z</time>
      </trkpt>
      <trkpt lat="43.73968" lon="3.52268">
        <ele>301.987305</ele>
        <time>2013-03-07T10:23:26Z</time>
      </trkpt>
      <trkpt lat="43.73969" lon="3.52244">
        <ele>304.124237</ele>
        <time>2013-03-07T10:23:44Z</time>
      </trkpt>
      <trkpt lat="43.73975" lon="3.52215">
        <ele>308.811554</ele>
        <time>2013-03-07T10:24:03Z</time>
      </trkpt>
      <trkpt lat="43.7399" lon="3.52187">
        <ele>316.071991</ele>
        <time>2013-03-07T10:24:23Z</time>
      </trkpt>
      <trkpt lat="43.73998" lon="3.52155">
        <ele>314.267456</ele>
        <time>2013-03-07T10:24:45Z</time>
      </trkpt>
      <trkpt lat="43.73999" lon="3.52143">
        <ele>313.374023</ele>
        <time>2013-03-07T10:24:53Z</time>
      </trkpt>
      <trkpt lat="43.74002" lon="3.52112">
        <ele>313.408356</ele>
        <time>2013-03-07T10:25:15Z</time>
      </trkpt>
      <trkpt lat="43.74005" lon="3.52083">
        <ele>315.68042</ele>
        <time>2013-03-07T10:25:38Z</time>
      </trkpt>
      <trkpt lat="43.74018" lon="3.5207">
        <ele>316.141327</ele>
        <time>2013-03-07T10:25:55Z</time>
      </trkpt>
      <trkpt lat="43.74031" lon="3.52049">
        <ele>317.904449</ele>
        <time>2013-03-07T10:26:21Z</time>
      </trkpt>
      <trkpt lat="43.74052" lon="3.52024">
        <ele>319.227325</ele>
        <time>2013-03-07T10:26:44Z</time>
      </trkpt>
      <trkpt lat="43.74079" lon="3.52007">
        <ele>322.033752</ele>
        <time>2013-03-07T10:27:05Z</time>
      </trkpt>
      <trkpt lat="43.74089" lon="3.51982">
        <ele>323.425049</ele>
        <time>2013-03-07T10:27:22Z</time>
      </trkpt>
      <trkpt lat="43.74093" lon="3.51969">
        <ele>323.167358</ele>
        <time>2013-03-07T10:27:31Z</time>
      </trkpt>
      <trkpt lat="43.74102" lon="3.51941">
        <ele>321.218597</ele>
        <time>2013-03-07T10:27:52Z</time>
      </trkpt>
      <trkpt lat="43.74101" lon="3.51917">
        <ele>321.234436</ele>
        <time>2013-03-07T10:28:06Z</time>
      </trkpt>
      <trkpt lat="43.741" lon="3.51881">
        <ele>321.848328</ele>
        <time>2013-03-07T10:28:27Z</time>
      </trkpt>
      <trkpt lat="43.7409" lon="3.51858">
        <ele>324.214722</ele>
        <time>2013-03-07T10:28:46Z</time>
      </trkpt>
      <trkpt lat="43.74083" lon="3.5185">
        <ele>325.465424</ele>
        <time>2013-03-07T10:29:08Z</time>
      </trkpt>
      <trkpt lat="43.74082" lon="3.51833">
        <ele>327.070007</ele>
        <time>2013-03-07T10:29:22Z</time>
      </trkpt>
      <trkpt lat="43.74086" lon="3.51813">
        <ele>328.328705</ele>
        <time>2013-03-07T10:29:40Z</time>
      </trkpt>
      <trkpt lat="43.74091" lon="3.51798">
        <ele>328.323181</ele>
        <time>2013-03-07T10:29:56Z</time>
      </trkpt>
      <trkpt lat="43.74097" lon="3.51784">
        <ele>327.365021</ele>
        <time>2013-03-07T10:30:11Z</time>
      </trkpt>
      <trkpt lat="43.74104" lon="3.51769">
        <ele>325.239502</ele>
        <time>2013-03-07T10:30:34Z</time>
      </trkpt>
      <trkpt lat="43.74118" lon="3.51746">
        <ele>323.156128</ele>
        <time>2013-03-07T10:30:52Z</time>
      </trkpt>
      <trkpt lat="43.74129" lon="3.51726">
        <ele>329.208252</ele>
        <time>2013-03-07T10:31:09Z</time>
      </trkpt>
      <trkpt lat="43.74135" lon="3.51708">
        <ele>330.944</ele>
        <time>2013-03-07T10:31:27Z</time>
      </trkpt>
      <trkpt lat="43.74139" lon="3.51698">
        <ele>330.674438</ele>
        <time>2013-03-07T10:31:35Z</time>
      </trkpt>
      <trkpt lat="43.74152" lon="3.51678">
        <ele>326.858765</ele>
        <time>2013-03-07T10:31:57Z</time>
      </trkpt>
      <trkpt lat="43.7416" lon="3.51654">
        <ele>325.966248</ele>
        <time>2013-03-07T10:32:20Z</time>
      </trkpt>
      <trkpt lat="43.74154" lon="3.51629">
        <ele>330.423767</ele>
        <time>2013-03-07T10:32:38Z</time>
      </trkpt>
      <trkpt lat="43.74202" lon="3.51585">
        <ele>333.958832</ele>
        <time>2013-03-07T10:33:09Z</time>
      </trkpt>
      <trkpt lat="43.74208" lon="3.51577">
        <ele>334.676941</ele>
        <time>2013-03-07T10:33:25Z</time>
      </trkpt>
      <trkpt lat="43.74205" lon="3.5157">
        <ele>334.866272</ele>
        <time>2013-03-07T10:33:29Z</time>
      </trkpt>
      <trkpt lat="43.74207" lon="3.51558">
        <ele>337.2724</ele>
        <time>2013-03-07T10:33:46Z</time>
      </trkpt>
      <trkpt lat="43.74194" lon="3.5153">
        <ele>342.125031</ele>
        <time>2013-03-07T10:36:30Z</time>
      </trkpt>
      <trkpt lat="43.74192" lon="3.51503">
        <ele>347.179779</ele>
        <time>2013-03-07T10:36:53Z</time>
      </trkpt>
      <trkpt lat="43.74194" lon="3.515">
        <ele>347.521515</ele>
        <time>2013-03-07T10:36:56Z</time>
      </trkpt>
      <trkpt lat="43.74197" lon="3.51492">
        <ele>348.244385</ele>
        <time>2013-03-07T10:37:03Z</time>
      </trkpt>
      <trkpt lat="43.74205" lon="3.51473">
        <ele>349.141418</ele>
        <time>2013-03-07T10:37:24Z</time>
      </trkpt>
      <trkpt lat="43.7421" lon="3.5145">
        <ele>350.27774</ele>
        <time>2013-03-07T10:37:44Z</time>
      </trkpt>
      <trkpt lat="43.74209" lon="3.51448">
        <ele>350.142365</ele>
        <time>2013-03-07T10:37:45Z</time>
      </trkpt>
      <trkpt lat="43.74209" lon="3.51441">
        <ele>350.222931</ele>
        <time>2013-03-07T10:37:50Z</time>
      </trkpt>
      <trkpt lat="43.74206" lon="3.51416">
        <ele>351.696564</ele>
        <time>2013-03-07T10:38:07Z</time>
      </trkpt>
      <trkpt lat="43.74204" lon="3.51378">
        <ele>353.970123</ele>
        <time>2013-03-07T10:38:29Z</time>
      </trkpt>
      <trkpt lat="43.74205" lon="3.51371">
        <ele>354.244904</ele>
        <time>2013-03-07T10:38:33Z</time>
      </trkpt>
      <trkpt lat="43.74208" lon="3.51353">
        <ele>354.91626</ele>
        <time>2013-03-07T10:38:44Z</time>
      </trkpt>
      <trkpt lat="43.74213" lon="3.51336">
        <ele>357.115112</ele>
        <time>2013-03-07T10:38:57Z</time>
      </trkpt>
      <trkpt lat="43.74232" lon="3.51316">
        <ele>364.076996</ele>
        <time>2013-03-07T10:39:15Z</time>
      </trkpt>
      <trkpt lat="43.74242" lon="3.51291">
        <ele>365.203369</ele>
        <time>2013-03-07T10:39:35Z</time>
      </trkpt>
      <trkpt lat="43.7425" lon="3.51261">
        <ele>363.045227</ele>
        <time>2013-03-07T10:39:56Z</time>
      </trkpt>
      <trkpt lat="43.74257" lon="3.51257">
        <ele>363.415283</ele>
        <time>2013-03-07T10:40:02Z</time>
      </trkpt>
      <trkpt lat="43.74272" lon="3.51249">
        <ele>367.783905</ele>
        <time>2013-03-07T10:40:15Z</time>
      </trkpt>
      <trkpt lat="43.74289" lon="3.51219">
        <ele>368.757507</ele>
        <time>2013-03-07T10:40:38Z</time>
      </trkpt>
      <trkpt lat="43.74301" lon="3.51193">
        <ele>366.672974</ele>
        <time>2013-03-07T10:40:57Z</time>
      </trkpt>
      <trkpt lat="43.74313" lon="3.51166">
        <ele>367.883392</ele>
        <time>2013-03-07T10:41:16Z</time>
      </trkpt>
      <trkpt lat="43.74319" lon="3.51147">
        <ele>367.340302</ele>
        <time>2013-03-07T10:41:29Z</time>
      </trkpt>
      <trkpt lat="43.74322" lon="3.51139">
        <ele>367.267517</ele>
        <time>2013-03-07T10:41:36Z</time>
      </trkpt>
      <trkpt lat="43.74331" lon="3.51125">
        <ele>369.430359</ele>
        <time>2013-03-07T10:41:48Z</time>
      </trkpt>
      <trkpt lat="43.74328" lon="3.51092">
        <ele>371.478607</ele>
        <time>2013-03-07T10:42:06Z</time>
      </trkpt>
      <trkpt lat="43.74318" lon="3.51061">
        <ele>373.936218</ele>
        <time>2013-03-07T10:42:23Z</time>
      </trkpt>
      <trkpt lat="43.74306" lon="3.51061">
        <ele>372.904602</ele>
        <time>2013-03-07T10:42:47Z</time>
      </trkpt>
      <trkpt lat="43.74302" lon="3.5106">
        <ele>372.958313</ele>
        <time>2013-03-07T10:43:03Z</time>
      </trkpt>
      <trkpt lat="43.74293" lon="3.51052">
        <ele>374.936676</ele>
        <time>2013-03-07T10:43:21Z</time>
      </trkpt>
      <trkpt lat="43.74291" lon="3.51053">
        <ele>375.215149</ele>
        <time>2013-03-07T10:43:50Z</time>
      </trkpt>
      <trkpt lat="43.74289" lon="3.51061">
        <ele>374.605103</ele>
        <time>2013-03-07T10:43:59Z</time>
      </trkpt>
      <trkpt lat="43.74289" lon="3.51069">
        <ele>373.865875</ele>
        <time>2013-03-07T10:44:05Z</time>
      </trkpt>
      <trkpt lat="43.74282" lon="3.51073">
        <ele>374.394012</ele>
        <time>2013-03-07T10:44:09Z</time>
      </trkpt>
      <trkpt lat="43.74276" lon="3.51088">
        <ele>374.225922</ele>
        <time>2013-03-07T10:44:20Z</time>
      </trkpt>
      <trkpt lat="43.74269" lon="3.5111">
        <ele>373.899567</ele>
        <time>2013-03-07T10:44:36Z</time>
      </trkpt>
      <trkpt lat="43.74266" lon="3.5112">
        <ele>373.771637</ele>
        <time>2013-03-07T10:44:44Z</time>
      </trkpt>
      <trkpt lat="43.74266" lon="3.51125">
        <ele>373.542877</ele>
        <time>2013-03-07T10:44:47Z</time>
      </trkpt>
      <trkpt lat="43.74269" lon="3.51129">
        <ele>372.639008</ele>
        <time>2013-03-07T10:44:49Z</time>
      </trkpt>
      <trkpt lat="43.74274" lon="3.51138">
        <ele>370.818695</ele>
        <time>2013-03-07T10:44:53Z</time>
      </trkpt>
      <trkpt lat="43.74272" lon="3.51142">
        <ele>370.834534</ele>
        <time>2013-03-07T10:44:56Z</time>
      </trkpt>
      <trkpt lat="43.74254" lon="3.51155">
        <ele>373.517029</ele>
        <time>2013-03-07T10:45:13Z</time>
      </trkpt>
      <trkpt lat="43.74238" lon="3.51164">
        <ele>378.206024</ele>
        <time>2013-03-07T10:45:29Z</time>
      </trkpt>
      <trkpt lat="43.74236" lon="3.51167">
        <ele>378.525055</ele>
        <time>2013-03-07T10:45:32Z</time>
      </trkpt>
      <trkpt lat="43.74218" lon="3.51179">
        <ele>382.153748</ele>
        <time>2013-03-07T10:45:49Z</time>
      </trkpt>
      <trkpt lat="43.74212" lon="3.51184">
        <ele>382.084442</ele>
        <time>2013-03-07T10:45:55Z</time>
      </trkpt>
      <trkpt lat="43.74205" lon="3.51193">
        <ele>380.50705</ele>
        <time>2013-03-07T10:46:06Z</time>
      </trkpt>
      <trkpt lat="43.74196" lon="3.51194">
        <ele>381.580292</ele>
        <time>2013-03-07T10:46:13Z</time>
      </trkpt>
      <trkpt lat="43.74174" lon="3.51182">
        <ele>389.386871</ele>
        <time>2013-03-07T10:46:35Z</time>
      </trkpt>
      <trkpt lat="43.74152" lon="3.51173">
        <ele>392.225403</ele>
        <time>2013-03-07T10:46:57Z</time>
      </trkpt>
      <trkpt lat="43.7415" lon="3.51174">
        <ele>391.717499</ele>
        <time>2013-03-07T10:46:59Z</time>
      </trkpt>
      <trkpt lat="43.74129" lon="3.51172">
        <ele>390.277069</ele>
        <time>2013-03-07T10:47:15Z</time>
      </trkpt>
      <trkpt lat="43.74127" lon="3.51169">
        <ele>391.435425</ele>
        <time>2013-03-07T10:47:18Z</time>
      </trkpt>
      <trkpt lat="43.74123" lon="3.51158">
        <ele>396.086609</ele>
        <time>2013-03-07T10:47:26Z</time>
      </trkpt>
      <trkpt lat="43.74121" lon="3.51153">
        <ele>397.961395</ele>
        <time>2013-03-07T10:47:30Z</time>
      </trkpt>
      <trkpt lat="43.74117" lon="3.51152">
        <ele>398.408295</ele>
        <time>2013-03-07T10:47:36Z</time>
      </trkpt>
      <trkpt lat="43.7411" lon="3.5115">
        <ele>398.927368</ele>
        <time>2013-03-07T10:47:43Z</time>
      </trkpt>
      <trkpt lat="43.74097" lon="3.51146">
        <ele>400.402008</ele>
        <time>2013-03-07T10:47:57Z</time>
      </trkpt>
      <trkpt lat="43.74083" lon="3.51141">
        <ele>402.408997</ele>
        <time>2013-03-07T10:48:11Z</time>
      </trkpt>
      <trkpt lat="43.74067" lon="3.51149">
        <ele>397.284821</ele>
        <time>2013-03-07T10:48:23Z</time>
      </trkpt>
      <trkpt lat="43.74054" lon="3.51145">
        <ele>398.203552</ele>
        <time>2013-03-07T10:48:34Z</time>
      </trkpt>
      <trkpt lat="43.74045" lon="3.51122">
        <ele>405.127594</ele>
        <time>2013-03-07T10:48:51Z</time>
      </trkpt>
      <trkpt lat="43.7403" lon="3.51101">
        <ele>410.15921</ele>
        <time>2013-03-07T10:49:08Z</time>
      </trkpt>
      <trkpt lat="43.74021" lon="3.51095">
        <ele>412.523468</ele>
        <time>2013-03-07T10:49:18Z</time>
      </trkpt>
      <trkpt lat="43.74019" lon="3.51095">
        <ele>412.905609</ele>
        <time>2013-03-07T10:49:20Z</time>
      </trkpt>
      <trkpt lat="43.74005" lon="3.51102">
        <ele>411.791626</ele>
        <time>2013-03-07T10:49:32Z</time>
      </trkpt>
      <trkpt lat="43.73996" lon="3.51119">
        <ele>408.645477</ele>
        <time>2013-03-07T10:49:43Z</time>
      </trkpt>
      <trkpt lat="43.73974" lon="3.51117">
        <ele>409.872803</ele>
        <time>2013-03-07T10:50:02Z</time>
      </trkpt>
      <trkpt lat="43.73963" lon="3.51111">
        <ele>411.065063</ele>
        <time>2013-03-07T10:50:12Z</time>
      </trkpt>
      <trkpt lat="43.73941" lon="3.51105">
        <ele>411.810455</ele>
        <time>2013-03-07T10:50:32Z</time>
      </trkpt>
      <trkpt lat="43.73922" lon="3.51089">
        <ele>413.184021</ele>
        <time>2013-03-07T10:50:50Z</time>
      </trkpt>
      <trkpt lat="43.73907" lon="3.51068">
        <ele>414.093445</ele>
        <time>2013-03-07T10:51:07Z</time>
      </trkpt>
      <trkpt lat="43.73907" lon="3.51037">
        <ele>415.315125</ele>
        <time>2013-03-07T10:51:27Z</time>
      </trkpt>
      <trkpt lat="43.73919" lon="3.51015">
        <ele>417.093353</ele>
        <time>2013-03-07T10:51:43Z</time>
      </trkpt>
      <trkpt lat="43.73922" lon="3.5101">
        <ele>417.485931</ele>
        <time>2013-03-07T10:51:47Z</time>
      </trkpt>
      <trkpt lat="43.73931" lon="3.51001">
        <ele>418.163757</ele>
        <time>2013-03-07T10:51:55Z</time>
      </trkpt>
      <trkpt lat="43.73934" lon="3.50999">
        <ele>418.33313</ele>
        <time>2013-03-07T10:51:58Z</time>
      </trkpt>
      <trkpt lat="43.73935" lon="3.50998">
        <ele>418.405884</ele>
        <time>2013-03-07T10:52:00Z</time>
      </trkpt>
      <trkpt lat="43.73957" lon="3.50974">
        <ele>420.019043</ele>
        <time>2013-03-07T10:52:22Z</time>
      </trkpt>
      <trkpt lat="43.73976" lon="3.50956">
        <ele>420.500549</ele>
        <time>2013-03-07T10:52:42Z</time>
      </trkpt>
      <trkpt lat="43.73977" lon="3.50931">
        <ele>420.142517</ele>
        <time>2013-03-07T10:52:57Z</time>
      </trkpt>
      <trkpt lat="43.73984" lon="3.50911">
        <ele>421.143738</ele>
        <time>2013-03-07T10:53:12Z</time>
      </trkpt>
      <trkpt lat="43.73987" lon="3.50907">
        <ele>421.265045</ele>
        <time>2013-03-07T10:53:16Z</time>
      </trkpt>
      <trkpt lat="43.73989" lon="3.50906">
        <ele>421.288605</ele>
        <time>2013-03-07T10:53:18Z</time>
      </trkpt>
      <trkpt lat="43.73989" lon="3.50901">
        <ele>421.43161</ele>
        <time>2013-03-07T10:53:22Z</time>
      </trkpt>
      <trkpt lat="43.74013" lon="3.50882">
        <ele>422.547577</ele>
        <time>2013-03-07T10:53:47Z</time>
      </trkpt>
      <trkpt lat="43.74011" lon="3.5088">
        <ele>422.542297</ele>
        <time>2013-03-07T10:54:16Z</time>
      </trkpt>
      <trkpt lat="43.7401" lon="3.50879">
        <ele>422.538147</ele>
        <time>2013-03-07T10:56:57Z</time>
      </trkpt>
      <trkpt lat="43.74018" lon="3.50863">
        <ele>423.134644</ele>
        <time>2013-03-07T10:57:38Z</time>
      </trkpt>
      <trkpt lat="43.74021" lon="3.50852">
        <ele>423.552338</ele>
        <time>2013-03-07T10:57:45Z</time>
      </trkpt>
      <trkpt lat="43.74032" lon="3.50824">
        <ele>424.782532</ele>
        <time>2013-03-07T10:58:05Z</time>
      </trkpt>
      <trkpt lat="43.74041" lon="3.50797">
        <ele>426.957489</ele>
        <time>2013-03-07T10:58:23Z</time>
      </trkpt>
      <trkpt lat="43.7405" lon="3.50772">
        <ele>429.308746</ele>
        <time>2013-03-07T10:58:40Z</time>
      </trkpt>
      <trkpt lat="43.74053" lon="3.50749">
        <ele>431.301147</ele>
        <time>2013-03-07T10:58:54Z</time>
      </trkpt>
      <trkpt lat="43.7405" lon="3.50728">
        <ele>433.054382</ele>
        <time>2013-03-07T10:59:10Z</time>
      </trkpt>
      <trkpt lat="43.74043" lon="3.50735">
        <ele>431.846497</ele>
        <time>2013-03-07T10:59:19Z</time>
      </trkpt>
      <trkpt lat="43.74028" lon="3.50762">
        <ele>426.675537</ele>
        <time>2013-03-07T10:59:41Z</time>
      </trkpt>
      <trkpt lat="43.74025" lon="3.50768">
        <ele>426.022491</ele>
        <time>2013-03-07T10:59:47Z</time>
      </trkpt>
      <trkpt lat="43.7401" lon="3.50799">
        <ele>423.848297</ele>
        <time>2013-03-07T11:00:08Z</time>
      </trkpt>
      <trkpt lat="43.73998" lon="3.50812">
        <ele>423.153351</ele>
        <time>2013-03-07T11:00:21Z</time>
      </trkpt>
      <trkpt lat="43.73977" lon="3.50833">
        <ele>422.92395</ele>
        <time>2013-03-07T11:00:42Z</time>
      </trkpt>
      <trkpt lat="43.73949" lon="3.50841">
        <ele>423.290344</ele>
        <time>2013-03-07T11:01:04Z</time>
      </trkpt>
      <trkpt lat="43.73921" lon="3.50849">
        <ele>424.284515</ele>
        <time>2013-03-07T11:01:26Z</time>
      </trkpt>
      <trkpt lat="43.739" lon="3.50862">
        <ele>425.359985</ele>
        <time>2013-03-07T11:01:45Z</time>
      </trkpt>
      <trkpt lat="43.73894" lon="3.50864">
        <ele>425.9646</ele>
        <time>2013-03-07T11:01:50Z</time>
      </trkpt>
      <trkpt lat="43.73873" lon="3.50858">
        <ele>427.277191</ele>
        <time>2013-03-07T11:02:07Z</time>
      </trkpt>
      <trkpt lat="43.73848" lon="3.50868">
        <ele>430.704987</ele>
        <time>2013-03-07T11:02:30Z</time>
      </trkpt>
      <trkpt lat="43.73831" lon="3.509">
        <ele>432.790009</ele>
        <time>2013-03-07T11:02:53Z</time>
      </trkpt>
      <trkpt lat="43.73827" lon="3.50903">
        <ele>433.352509</ele>
        <time>2013-03-07T11:02:58Z</time>
      </trkpt>
      <trkpt lat="43.73813" lon="3.50913">
        <ele>435.182495</ele>
        <time>2013-03-07T11:03:10Z</time>
      </trkpt>
      <trkpt lat="43.73801" lon="3.50926">
        <ele>436.698547</ele>
        <time>2013-03-07T11:03:24Z</time>
      </trkpt>
      <trkpt lat="43.73786" lon="3.50948">
        <ele>439.317352</ele>
        <time>2013-03-07T11:03:44Z</time>
      </trkpt>
      <trkpt lat="43.73781" lon="3.50951">
        <ele>440.644531</ele>
        <time>2013-03-07T11:03:49Z</time>
      </trkpt>
      <trkpt lat="43.73769" lon="3.50954">
        <ele>443.783325</ele>
        <time>2013-03-07T11:04:01Z</time>
      </trkpt>
      <trkpt lat="43.73766" lon="3.50954">
        <ele>444.73996</ele>
        <time>2013-03-07T11:04:04Z</time>
      </trkpt>
      <trkpt lat="43.73756" lon="3.50975">
        <ele>445.676636</ele>
        <time>2013-03-07T11:04:21Z</time>
      </trkpt>
      <trkpt lat="43.73745" lon="3.50996">
        <ele>447.046417</ele>
        <time>2013-03-07T11:04:40Z</time>
      </trkpt>
      <trkpt lat="43.73735" lon="3.51015">
        <ele>448.012787</ele>
        <time>2013-03-07T11:04:57Z</time>
      </trkpt>
      <trkpt lat="43.73732" lon="3.51025">
        <ele>448.264008</ele>
        <time>2013-03-07T11:05:04Z</time>
      </trkpt>
      <trkpt lat="43.73719" lon="3.51051">
        <ele>449.944641</ele>
        <time>2013-03-07T11:05:24Z</time>
      </trkpt>
      <trkpt lat="43.73717" lon="3.51053">
        <ele>449.961365</ele>
        <time>2013-03-07T11:05:26Z</time>
      </trkpt>
      <trkpt lat="43.73705" lon="3.51084">
        <ele>450.594879</ele>
        <time>2013-03-07T11:05:48Z</time>
      </trkpt>
      <trkpt lat="43.73699" lon="3.51108">
        <ele>451.95047</ele>
        <time>2013-03-07T11:06:06Z</time>
      </trkpt>
      <trkpt lat="43.737" lon="3.51117">
        <ele>451.9953</ele>
        <time>2013-03-07T11:06:12Z</time>
      </trkpt>
      <trkpt lat="43.73705" lon="3.51124">
        <ele>451.139526</ele>
        <time>2013-03-07T11:06:18Z</time>
      </trkpt>
      <trkpt lat="43.73705" lon="3.5113">
        <ele>450.797516</ele>
        <time>2013-03-07T11:06:22Z</time>
      </trkpt>
      <trkpt lat="43.73701" lon="3.51143">
        <ele>450.944214</ele>
        <time>2013-03-07T11:06:31Z</time>
      </trkpt>
      <trkpt lat="43.73682" lon="3.51154">
        <ele>455.615936</ele>
        <time>2013-03-07T11:06:49Z</time>
      </trkpt>
      <trkpt lat="43.73671" lon="3.51182">
        <ele>458.707245</ele>
        <time>2013-03-07T11:07:09Z</time>
      </trkpt>
      <trkpt lat="43.73669" lon="3.51186">
        <ele>459.51944</ele>
        <time>2013-03-07T11:07:12Z</time>
      </trkpt>
      <trkpt lat="43.73667" lon="3.51191">
        <ele>459.324402</ele>
        <time>2013-03-07T11:07:16Z</time>
      </trkpt>
      <trkpt lat="43.7366" lon="3.51214">
        <ele>458.626404</ele>
        <time>2013-03-07T11:07:30Z</time>
      </trkpt>
      <trkpt lat="43.73659" lon="3.5122">
        <ele>458.257904</ele>
        <time>2013-03-07T11:07:34Z</time>
      </trkpt>
      <trkpt lat="43.73654" lon="3.51232">
        <ele>458.640167</ele>
        <time>2013-03-07T11:07:43Z</time>
      </trkpt>
      <trkpt lat="43.73651" lon="3.51239">
        <ele>458.799011</ele>
        <time>2013-03-07T11:07:48Z</time>
      </trkpt>
      <trkpt lat="43.73646" lon="3.51249">
        <ele>459.966553</ele>
        <time>2013-03-07T11:07:55Z</time>
      </trkpt>
      <trkpt lat="43.73621" lon="3.51273">
        <ele>467.101715</ele>
        <time>2013-03-07T11:08:17Z</time>
      </trkpt>
      <trkpt lat="43.73608" lon="3.51289">
        <ele>469.401367</ele>
        <time>2013-03-07T11:08:34Z</time>
      </trkpt>
      <trkpt lat="43.73605" lon="3.51299">
        <ele>469.049835</ele>
        <time>2013-03-07T11:08:41Z</time>
      </trkpt>
      <trkpt lat="43.73604" lon="3.51306">
        <ele>468.091583</ele>
        <time>2013-03-07T11:08:45Z</time>
      </trkpt>
      <trkpt lat="43.73603" lon="3.51339">
        <ele>468.997375</ele>
        <time>2013-03-07T11:09:06Z</time>
      </trkpt>
      <trkpt lat="43.73606" lon="3.51358">
        <ele>468.278168</ele>
        <time>2013-03-07T11:09:18Z</time>
      </trkpt>
      <trkpt lat="43.73607" lon="3.51363">
        <ele>467.81723</ele>
        <time>2013-03-07T11:09:21Z</time>
      </trkpt>
      <trkpt lat="43.73608" lon="3.51384">
        <ele>466.561737</ele>
        <time>2013-03-07T11:09:36Z</time>
      </trkpt>
      <trkpt lat="43.73602" lon="3.51404">
        <ele>468.250885</ele>
        <time>2013-03-07T11:09:54Z</time>
      </trkpt>
      <trkpt lat="43.73601" lon="3.51406">
        <ele>468.700989</ele>
        <time>2013-03-07T11:09:56Z</time>
      </trkpt>
      <trkpt lat="43.73591" lon="3.51418">
        <ele>473.919006</ele>
        <time>2013-03-07T11:10:11Z</time>
      </trkpt>
      <trkpt lat="43.73583" lon="3.51431">
        <ele>477.8237</ele>
        <time>2013-03-07T11:10:24Z</time>
      </trkpt>
      <trkpt lat="43.73571" lon="3.51442">
        <ele>483.578705</ele>
        <time>2013-03-07T11:10:42Z</time>
      </trkpt>
      <trkpt lat="43.73562" lon="3.51465">
        <ele>487.131195</ele>
        <time>2013-03-07T11:11:01Z</time>
      </trkpt>
      <trkpt lat="43.73561" lon="3.51482">
        <ele>486.280121</ele>
        <time>2013-03-07T11:11:24Z</time>
      </trkpt>
      <trkpt lat="43.73563" lon="3.51482">
        <ele>485.365692</ele>
        <time>2013-03-07T11:12:03Z</time>
      </trkpt>
      <trkpt lat="43.73551" lon="3.51509">
        <ele>489.987671</ele>
        <time>2013-03-07T11:15:29Z</time>
      </trkpt>
      <trkpt lat="43.73542" lon="3.51543">
        <ele>490.044373</ele>
        <time>2013-03-07T11:15:49Z</time>
      </trkpt>
      <trkpt lat="43.73533" lon="3.51566">
        <ele>492.789948</ele>
        <time>2013-03-07T11:16:07Z</time>
      </trkpt>
      <trkpt lat="43.73522" lon="3.51582">
        <ele>498.773712</ele>
        <time>2013-03-07T11:16:22Z</time>
      </trkpt>
      <trkpt lat="43.73501" lon="3.51614">
        <ele>506.016266</ele>
        <time>2013-03-07T11:16:49Z</time>
      </trkpt>
      <trkpt lat="43.73504" lon="3.5164">
        <ele>509.459778</ele>
        <time>2013-03-07T11:17:06Z</time>
      </trkpt>
      <trkpt lat="43.73508" lon="3.51646">
        <ele>509.223236</ele>
        <time>2013-03-07T11:17:13Z</time>
      </trkpt>
      <trkpt lat="43.73524" lon="3.51672">
        <ele>510.263855</ele>
        <time>2013-03-07T11:17:36Z</time>
      </trkpt>
      <trkpt lat="43.73533" lon="3.51705">
        <ele>512.540649</ele>
        <time>2013-03-07T11:18:02Z</time>
      </trkpt>
      <trkpt lat="43.73535" lon="3.51723">
        <ele>514.453674</ele>
        <time>2013-03-07T11:18:19Z</time>
      </trkpt>
      <trkpt lat="43.73536" lon="3.51746">
        <ele>516.878235</ele>
        <time>2013-03-07T11:18:39Z</time>
      </trkpt>
      <trkpt lat="43.73532" lon="3.51774">
        <ele>520.023499</ele>
        <time>2013-03-07T11:19:04Z</time>
      </trkpt>
      <trkpt lat="43.73521" lon="3.51791">
        <ele>525.103455</ele>
        <time>2013-03-07T11:19:25Z</time>
      </trkpt>
      <trkpt lat="43.73511" lon="3.51802">
        <ele>529.207764</ele>
        <time>2013-03-07T11:19:42Z</time>
      </trkpt>
      <trkpt lat="43.73497" lon="3.51808">
        <ele>533.398804</ele>
        <time>2013-03-07T11:19:56Z</time>
      </trkpt>
      <trkpt lat="43.73503" lon="3.51827">
        <ele>533.897888</ele>
        <time>2013-03-07T11:20:15Z</time>
      </trkpt>
      <trkpt lat="43.73512" lon="3.51849">
        <ele>533.54364</ele>
        <time>2013-03-07T11:20:35Z</time>
      </trkpt>
      <trkpt lat="43.73516" lon="3.51872">
        <ele>534.228088</ele>
        <time>2013-03-07T11:20:53Z</time>
      </trkpt>
      <trkpt lat="43.73516" lon="3.51886">
        <ele>534.93634</ele>
        <time>2013-03-07T11:21:06Z</time>
      </trkpt>
      <trkpt lat="43.73513" lon="3.51899">
        <ele>536.450806</ele>
        <time>2013-03-07T11:21:24Z</time>
      </trkpt>
      <trkpt lat="43.73506" lon="3.51898">
        <ele>539.121094</ele>
        <time>2013-03-07T11:21:38Z</time>
      </trkpt>
      <trkpt lat="43.73497" lon="3.51883">
        <ele>541.194641</ele>
        <time>2013-03-07T11:22:00Z</time>
      </trkpt>
      <trkpt lat="43.73488" lon="3.51876">
        <ele>543.247375</ele>
        <time>2013-03-07T11:22:14Z</time>
      </trkpt>
      <trkpt lat="43.73479" lon="3.51867">
        <ele>544.323364</ele>
        <time>2013-03-07T11:22:29Z</time>
      </trkpt>
      <trkpt lat="43.73468" lon="3.51859">
        <ele>545.614075</ele>
        <time>2013-03-07T11:22:48Z</time>
      </trkpt>
      <trkpt lat="43.73461" lon="3.51862">
        <ele>547.171509</ele>
        <time>2013-03-07T11:22:58Z</time>
      </trkpt>
      <trkpt lat="43.73448" lon="3.51871">
        <ele>550.489868</ele>
        <time>2013-03-07T11:23:14Z</time>
      </trkpt>
      <trkpt lat="43.73433" lon="3.51891">
        <ele>555.813293</ele>
        <time>2013-03-07T11:23:39Z</time>
      </trkpt>
      <trkpt lat="43.73423" lon="3.51913">
        <ele>559.401917</ele>
        <time>2013-03-07T11:24:03Z</time>
      </trkpt>
      <trkpt lat="43.73414" lon="3.51917">
        <ele>560.476196</ele>
        <time>2013-03-07T11:24:20Z</time>
      </trkpt>
      <trkpt lat="43.73403" lon="3.51912">
        <ele>560.92041</ele>
        <time>2013-03-07T11:24:34Z</time>
      </trkpt>
      <trkpt lat="43.73401" lon="3.51914">
        <ele>561.164978</ele>
        <time>2013-03-07T11:24:54Z</time>
      </trkpt>
      <trkpt lat="43.73399" lon="3.51919">
        <ele>561.560181</ele>
        <time>2013-03-07T11:25:21Z</time>
      </trkpt>
      <trkpt lat="43.73398" lon="3.51918">
        <ele>561.586121</ele>
        <time>2013-03-07T11:26:41Z</time>
      </trkpt>
      <trkpt lat="43.73389" lon="3.51921">
        <ele>561.773438</ele>
        <time>2013-03-07T11:28:16Z</time>
      </trkpt>
      <trkpt lat="43.73377" lon="3.5193">
        <ele>561.770142</ele>
        <time>2013-03-07T11:28:32Z</time>
      </trkpt>
      <trkpt lat="43.73359" lon="3.5194">
        <ele>561.369873</ele>
        <time>2013-03-07T11:28:53Z</time>
      </trkpt>
      <trkpt lat="43.73345" lon="3.51953">
        <ele>560.196533</ele>
        <time>2013-03-07T11:29:13Z</time>
      </trkpt>
      <trkpt lat="43.73335" lon="3.51965">
        <ele>558.012817</ele>
        <time>2013-03-07T11:29:29Z</time>
      </trkpt>
      <trkpt lat="43.73332" lon="3.51983">
        <ele>557.357178</ele>
        <time>2013-03-07T11:29:48Z</time>
      </trkpt>
      <trkpt lat="43.73329" lon="3.51993">
        <ele>556.96167</ele>
        <time>2013-03-07T11:30:02Z</time>
      </trkpt>
      <trkpt lat="43.73328" lon="3.51998">
        <ele>557.008667</ele>
        <time>2013-03-07T11:30:19Z</time>
      </trkpt>
      <trkpt lat="43.73328" lon="3.51996">
        <ele>556.952698</ele>
        <time>2013-03-07T11:30:52Z</time>
      </trkpt>
      <trkpt lat="43.73331" lon="3.52">
        <ele>557.676025</ele>
        <time>2013-03-07T11:32:28Z</time>
      </trkpt>
      <trkpt lat="43.73331" lon="3.51997">
        <ele>557.563293</ele>
        <time>2013-03-07T11:58:26Z</time>
      </trkpt>
      <trkpt lat="43.73327" lon="3.51995">
        <ele>556.542786</ele>
        <time>2013-03-07T12:09:01Z</time>
      </trkpt>
      <trkpt lat="43.73331" lon="3.51995">
        <ele>557.396484</ele>
        <time>2013-03-07T12:12:26Z</time>
      </trkpt>
      <trkpt lat="43.73317" lon="3.51987">
        <ele>554.079773</ele>
        <time>2013-03-07T12:13:07Z</time>
      </trkpt>
      <trkpt lat="43.73311" lon="3.5197">
        <ele>552.858276</ele>
        <time>2013-03-07T12:13:28Z</time>
      </trkpt>
      <trkpt lat="43.73308" lon="3.51956">
        <ele>552.784851</ele>
        <time>2013-03-07T12:13:44Z</time>
      </trkpt>
      <trkpt lat="43.73296" lon="3.51948">
        <ele>550.26001</ele>
        <time>2013-03-07T12:14:06Z</time>
      </trkpt>
      <trkpt lat="43.73281" lon="3.5196">
        <ele>546.087524</ele>
        <time>2013-03-07T12:14:36Z</time>
      </trkpt>
      <trkpt lat="43.7328" lon="3.51947">
        <ele>546.192505</ele>
        <time>2013-03-07T12:14:52Z</time>
      </trkpt>
      <trkpt lat="43.73269" lon="3.51932">
        <ele>543.912476</ele>
        <time>2013-03-07T12:15:12Z</time>
      </trkpt>
      <trkpt lat="43.73252" lon="3.51932">
        <ele>541.029358</ele>
        <time>2013-03-07T12:15:29Z</time>
      </trkpt>
      <trkpt lat="43.73234" lon="3.51938">
        <ele>539.039734</ele>
        <time>2013-03-07T12:15:46Z</time>
      </trkpt>
      <trkpt lat="43.73222" lon="3.51938">
        <ele>537.843201</ele>
        <time>2013-03-07T12:15:59Z</time>
      </trkpt>
      <trkpt lat="43.73221" lon="3.51949">
        <ele>536.63501</ele>
        <time>2013-03-07T12:16:10Z</time>
      </trkpt>
      <trkpt lat="43.73236" lon="3.51952">
        <ele>538.124084</ele>
        <time>2013-03-07T12:16:33Z</time>
      </trkpt>
      <trkpt lat="43.73228" lon="3.51958">
        <ele>536.648132</ele>
        <time>2013-03-07T12:16:47Z</time>
      </trkpt>
      <trkpt lat="43.73207" lon="3.51971">
        <ele>533.46283</ele>
        <time>2013-03-07T12:17:13Z</time>
      </trkpt>
      <trkpt lat="43.73185" lon="3.51993">
        <ele>531.099976</ele>
        <time>2013-03-07T12:17:38Z</time>
      </trkpt>
      <trkpt lat="43.73169" lon="3.52021">
        <ele>527.061646</ele>
        <time>2013-03-07T12:18:02Z</time>
      </trkpt>
      <trkpt lat="43.73155" lon="3.52047">
        <ele>524.935425</ele>
        <time>2013-03-07T12:18:28Z</time>
      </trkpt>
      <trkpt lat="43.73138" lon="3.52064">
        <ele>525.422668</ele>
        <time>2013-03-07T12:18:47Z</time>
      </trkpt>
      <trkpt lat="43.73128" lon="3.52071">
        <ele>524.316589</ele>
        <time>2013-03-07T12:19:01Z</time>
      </trkpt>
      <trkpt lat="43.73106" lon="3.52085">
        <ele>522.167908</ele>
        <time>2013-03-07T12:19:23Z</time>
      </trkpt>
      <trkpt lat="43.73095" lon="3.52103">
        <ele>518.335022</ele>
        <time>2013-03-07T12:19:41Z</time>
      </trkpt>
      <trkpt lat="43.73076" lon="3.52125">
        <ele>517.243835</ele>
        <time>2013-03-07T12:20:07Z</time>
      </trkpt>
      <trkpt lat="43.73064" lon="3.52139">
        <ele>516.118286</ele>
        <time>2013-03-07T12:20:24Z</time>
      </trkpt>
      <trkpt lat="43.73047" lon="3.52147">
        <ele>512.669617</ele>
        <time>2013-03-07T12:20:44Z</time>
      </trkpt>
      <trkpt lat="43.73041" lon="3.52148">
        <ele>511.262299</ele>
        <time>2013-03-07T12:20:49Z</time>
      </trkpt>
      <trkpt lat="43.73021" lon="3.5215">
        <ele>507.8172</ele>
        <time>2013-03-07T12:21:06Z</time>
      </trkpt>
      <trkpt lat="43.73008" lon="3.52149">
        <ele>506.605499</ele>
        <time>2013-03-07T12:21:20Z</time>
      </trkpt>
      <trkpt lat="43.73" lon="3.52154">
        <ele>504.391113</ele>
        <time>2013-03-07T12:21:32Z</time>
      </trkpt>
      <trkpt lat="43.72983" lon="3.52166">
        <ele>500.274933</ele>
        <time>2013-03-07T12:21:51Z</time>
      </trkpt>
      <trkpt lat="43.72954" lon="3.52182">
        <ele>499.48999</ele>
        <time>2013-03-07T12:22:15Z</time>
      </trkpt>
      <trkpt lat="43.72936" lon="3.52193">
        <ele>496.654022</ele>
        <time>2013-03-07T12:22:36Z</time>
      </trkpt>
      <trkpt lat="43.72903" lon="3.52198">
        <ele>494.700317</ele>
        <time>2013-03-07T12:23:05Z</time>
      </trkpt>
      <trkpt lat="43.72896" lon="3.52201">
        <ele>493.645081</ele>
        <time>2013-03-07T12:23:14Z</time>
      </trkpt>
      <trkpt lat="43.72868" lon="3.52226">
        <ele>487.166443</ele>
        <time>2013-03-07T12:23:41Z</time>
      </trkpt>
      <trkpt lat="43.72864" lon="3.52231">
        <ele>486.429291</ele>
        <time>2013-03-07T12:23:46Z</time>
      </trkpt>
      <trkpt lat="43.72846" lon="3.52252">
        <ele>482.553619</ele>
        <time>2013-03-07T12:24:06Z</time>
      </trkpt>
      <trkpt lat="43.72837" lon="3.52269">
        <ele>481.049408</ele>
        <time>2013-03-07T12:24:25Z</time>
      </trkpt>
      <trkpt lat="43.72843" lon="3.52267">
        <ele>480.750427</ele>
        <time>2013-03-07T12:24:34Z</time>
      </trkpt>
      <trkpt lat="43.72872" lon="3.52241">
        <ele>486.132385</ele>
        <time>2013-03-07T12:25:03Z</time>
      </trkpt>
      <trkpt lat="43.72879" lon="3.52231">
        <ele>487.203339</ele>
        <time>2013-03-07T12:25:10Z</time>
      </trkpt>
      <trkpt lat="43.72885" lon="3.52228">
        <ele>487.623169</ele>
        <time>2013-03-07T12:25:15Z</time>
      </trkpt>
      <trkpt lat="43.72904" lon="3.52224">
        <ele>488.614868</ele>
        <time>2013-03-07T12:25:29Z</time>
      </trkpt>
      <trkpt lat="43.72907" lon="3.52226">
        <ele>488.502716</ele>
        <time>2013-03-07T12:25:31Z</time>
      </trkpt>
      <trkpt lat="43.72908" lon="3.52237">
        <ele>489.356812</ele>
        <time>2013-03-07T12:25:42Z</time>
      </trkpt>
      <trkpt lat="43.72906" lon="3.5224">
        <ele>489.395355</ele>
        <time>2013-03-07T12:25:44Z</time>
      </trkpt>
      <trkpt lat="43.72901" lon="3.52252">
        <ele>489.15686</ele>
        <time>2013-03-07T12:25:51Z</time>
      </trkpt>
      <trkpt lat="43.72895" lon="3.52267">
        <ele>488.391663</ele>
        <time>2013-03-07T12:26:02Z</time>
      </trkpt>
      <trkpt lat="43.72891" lon="3.52293">
        <ele>487.759186</ele>
        <time>2013-03-07T12:26:18Z</time>
      </trkpt>
      <trkpt lat="43.72889" lon="3.52297">
        <ele>487.490814</ele>
        <time>2013-03-07T12:26:21Z</time>
      </trkpt>
      <trkpt lat="43.7289" lon="3.52308">
        <ele>488.004761</ele>
        <time>2013-03-07T12:26:25Z</time>
      </trkpt>
      <trkpt lat="43.7288" lon="3.52339">
        <ele>484.622284</ele>
        <time>2013-03-07T12:26:44Z</time>
      </trkpt>
      <trkpt lat="43.72879" lon="3.52349">
        <ele>484.282501</ele>
        <time>2013-03-07T12:26:51Z</time>
      </trkpt>
      <trkpt lat="43.72882" lon="3.52372">
        <ele>483.517487</ele>
        <time>2013-03-07T12:27:07Z</time>
      </trkpt>
      <trkpt lat="43.72894" lon="3.52378">
        <ele>488.744995</ele>
        <time>2013-03-07T12:27:22Z</time>
      </trkpt>
      <trkpt lat="43.72908" lon="3.52376">
        <ele>491.850006</ele>
        <time>2013-03-07T12:27:36Z</time>
      </trkpt>
      <trkpt lat="43.72919" lon="3.52375">
        <ele>494.279999</ele>
        <time>2013-03-07T12:27:46Z</time>
      </trkpt>
      <trkpt lat="43.72935" lon="3.52376">
        <ele>497.392487</ele>
        <time>2013-03-07T12:27:59Z</time>
      </trkpt>
      <trkpt lat="43.72942" lon="3.52379">
        <ele>498.295654</ele>
        <time>2013-03-07T12:28:04Z</time>
      </trkpt>
      <trkpt lat="43.72961" lon="3.52383">
        <ele>500.444092</ele>
        <time>2013-03-07T12:28:21Z</time>
      </trkpt>
      <trkpt lat="43.72963" lon="3.52383">
        <ele>500.696442</ele>
        <time>2013-03-07T12:28:23Z</time>
      </trkpt>
      <trkpt lat="43.7298" lon="3.52389">
        <ele>502.50589</ele>
        <time>2013-03-07T12:28:37Z</time>
      </trkpt>
      <trkpt lat="43.72976" lon="3.52396">
        <ele>501.611511</ele>
        <time>2013-03-07T12:28:44Z</time>
      </trkpt>
      <trkpt lat="43.72969" lon="3.52405">
        <ele>500.069214</ele>
        <time>2013-03-07T12:28:52Z</time>
      </trkpt>
      <trkpt lat="43.72956" lon="3.52429">
        <ele>499.027496</ele>
        <time>2013-03-07T12:29:08Z</time>
      </trkpt>
      <trkpt lat="43.72944" lon="3.5245">
        <ele>498.04303</ele>
        <time>2013-03-07T12:29:26Z</time>
      </trkpt>
      <trkpt lat="43.72938" lon="3.52467">
        <ele>497.390198</ele>
        <time>2013-03-07T12:29:40Z</time>
      </trkpt>
      <trkpt lat="43.72932" lon="3.52509">
        <ele>497.099426</ele>
        <time>2013-03-07T12:30:11Z</time>
      </trkpt>
      <trkpt lat="43.72928" lon="3.52522">
        <ele>496.27829</ele>
        <time>2013-03-07T12:30:18Z</time>
      </trkpt>
      <trkpt lat="43.72923" lon="3.52543">
        <ele>494.928345</ele>
        <time>2013-03-07T12:30:30Z</time>
      </trkpt>
      <trkpt lat="43.72914" lon="3.5259">
        <ele>491.473175</ele>
        <time>2013-03-07T12:30:55Z</time>
      </trkpt>
      <trkpt lat="43.72913" lon="3.52601">
        <ele>490.611511</ele>
        <time>2013-03-07T12:31:01Z</time>
      </trkpt>
      <trkpt lat="43.72923" lon="3.52616">
        <ele>491.081268</ele>
        <time>2013-03-07T12:31:11Z</time>
      </trkpt>
      <trkpt lat="43.72938" lon="3.5263">
        <ele>492.099274</ele>
        <time>2013-03-07T12:31:29Z</time>
      </trkpt>
      <trkpt lat="43.72952" lon="3.52629">
        <ele>492.804077</ele>
        <time>2013-03-07T12:31:41Z</time>
      </trkpt>
      <trkpt lat="43.72969" lon="3.52628">
        <ele>493.904846</ele>
        <time>2013-03-07T12:31:58Z</time>
      </trkpt>
      <trkpt lat="43.72994" lon="3.52622">
        <ele>498.071106</ele>
        <time>2013-03-07T12:32:24Z</time>
      </trkpt>
      <trkpt lat="43.73019" lon="3.52627">
        <ele>500.950378</ele>
        <time>2013-03-07T12:32:47Z</time>
      </trkpt>
      <trkpt lat="43.73025" lon="3.52629">
        <ele>501.428925</ele>
        <time>2013-03-07T12:32:52Z</time>
      </trkpt>
      <trkpt lat="43.7304" lon="3.52659">
        <ele>498.625854</ele>
        <time>2013-03-07T12:33:13Z</time>
      </trkpt>
      <trkpt lat="43.73056" lon="3.52697">
        <ele>495.52179</ele>
        <time>2013-03-07T12:33:42Z</time>
      </trkpt>
      <trkpt lat="43.73076" lon="3.52724">
        <ele>496.977356</ele>
        <time>2013-03-07T12:34:07Z</time>
      </trkpt>
      <trkpt lat="43.73079" lon="3.52726">
        <ele>497.968933</ele>
        <time>2013-03-07T12:34:09Z</time>
      </trkpt>
      <trkpt lat="43.73098" lon="3.52753">
        <ele>504.539001</ele>
        <time>2013-03-07T12:34:37Z</time>
      </trkpt>
      <trkpt lat="43.73093" lon="3.5277">
        <ele>502.288849</ele>
        <time>2013-03-07T12:34:52Z</time>
      </trkpt>
      <trkpt lat="43.7308" lon="3.52791">
        <ele>497.19577</ele>
        <time>2013-03-07T12:35:10Z</time>
      </trkpt>
      <trkpt lat="43.73065" lon="3.52806">
        <ele>492.939758</ele>
        <time>2013-03-07T12:35:31Z</time>
      </trkpt>
      <trkpt lat="43.73045" lon="3.52847">
        <ele>490.239105</ele>
        <time>2013-03-07T12:35:58Z</time>
      </trkpt>
      <trkpt lat="43.73039" lon="3.5289">
        <ele>490.197998</ele>
        <time>2013-03-07T12:36:25Z</time>
      </trkpt>
      <trkpt lat="43.73036" lon="3.52918">
        <ele>490.197906</ele>
        <time>2013-03-07T12:36:40Z</time>
      </trkpt>
      <trkpt lat="43.73041" lon="3.52935">
        <ele>490.987335</ele>
        <time>2013-03-07T12:36:53Z</time>
      </trkpt>
      <trkpt lat="43.73044" lon="3.52949">
        <ele>491.049988</ele>
        <time>2013-03-07T12:37:02Z</time>
      </trkpt>
      <trkpt lat="43.73048" lon="3.52952">
        <ele>491.788452</ele>
        <time>2013-03-07T12:37:05Z</time>
      </trkpt>
      <trkpt lat="43.73052" lon="3.5296">
        <ele>492.154602</ele>
        <time>2013-03-07T12:37:12Z</time>
      </trkpt>
      <trkpt lat="43.73054" lon="3.52962">
        <ele>492.416626</ele>
        <time>2013-03-07T12:37:15Z</time>
      </trkpt>
      <trkpt lat="43.73068" lon="3.52972">
        <ele>493.940002</ele>
        <time>2013-03-07T12:37:30Z</time>
      </trkpt>
      <trkpt lat="43.73081" lon="3.52984">
        <ele>492.804108</ele>
        <time>2013-03-07T12:37:46Z</time>
      </trkpt>
      <trkpt lat="43.731" lon="3.5299">
        <ele>493.364777</ele>
        <time>2013-03-07T12:38:00Z</time>
      </trkpt>
      <trkpt lat="43.73128" lon="3.52991">
        <ele>494.81131</ele>
        <time>2013-03-07T12:38:24Z</time>
      </trkpt>
      <trkpt lat="43.73134" lon="3.52996">
        <ele>493.78125</ele>
        <time>2013-03-07T12:38:31Z</time>
      </trkpt>
      <trkpt lat="43.73137" lon="3.52998">
        <ele>493.406616</ele>
        <time>2013-03-07T12:38:34Z</time>
      </trkpt>
      <trkpt lat="43.73154" lon="3.52995">
        <ele>494.770264</ele>
        <time>2013-03-07T12:38:48Z</time>
      </trkpt>
      <trkpt lat="43.73172" lon="3.52999">
        <ele>494.190002</ele>
        <time>2013-03-07T12:39:03Z</time>
      </trkpt>
      <trkpt lat="43.73193" lon="3.53002">
        <ele>493.825012</ele>
        <time>2013-03-07T12:39:18Z</time>
      </trkpt>
      <trkpt lat="43.73204" lon="3.5301">
        <ele>491.740936</ele>
        <time>2013-03-07T12:39:31Z</time>
      </trkpt>
      <trkpt lat="43.73222" lon="3.53014">
        <ele>490.407959</ele>
        <time>2013-03-07T12:39:47Z</time>
      </trkpt>
      <trkpt lat="43.73237" lon="3.53021">
        <ele>488.433044</ele>
        <time>2013-03-07T12:40:01Z</time>
      </trkpt>
      <trkpt lat="43.73258" lon="3.53024">
        <ele>487.381714</ele>
        <time>2013-03-07T12:40:18Z</time>
      </trkpt>
      <trkpt lat="43.73275" lon="3.5302">
        <ele>487.859558</ele>
        <time>2013-03-07T12:40:32Z</time>
      </trkpt>
      <trkpt lat="43.73279" lon="3.53016">
        <ele>488.77655</ele>
        <time>2013-03-07T12:40:35Z</time>
      </trkpt>
      <trkpt lat="43.73291" lon="3.53005">
        <ele>491.120148</ele>
        <time>2013-03-07T12:40:45Z</time>
      </trkpt>
      <trkpt lat="43.73301" lon="3.52998">
        <ele>493.622498</ele>
        <time>2013-03-07T12:40:58Z</time>
      </trkpt>
      <trkpt lat="43.73309" lon="3.52994">
        <ele>495.209991</ele>
        <time>2013-03-07T12:41:06Z</time>
      </trkpt>
      <trkpt lat="43.73315" lon="3.53006">
        <ele>493.110016</ele>
        <time>2013-03-07T12:41:21Z</time>
      </trkpt>
      <trkpt lat="43.73326" lon="3.5301">
        <ele>493.152496</ele>
        <time>2013-03-07T12:41:41Z</time>
      </trkpt>
      <trkpt lat="43.7333" lon="3.53013">
        <ele>492.636261</ele>
        <time>2013-03-07T12:42:16Z</time>
      </trkpt>
      <trkpt lat="43.73319" lon="3.53009">
        <ele>492.570007</ele>
        <time>2013-03-07T12:42:58Z</time>
      </trkpt>
      <trkpt lat="43.73321" lon="3.53014">
        <ele>491.461243</ele>
        <time>2013-03-07T12:43:04Z</time>
      </trkpt>
      <trkpt lat="43.73327" lon="3.53019">
        <ele>490.90625</ele>
        <time>2013-03-07T12:43:10Z</time>
      </trkpt>
      <trkpt lat="43.73339" lon="3.53041">
        <ele>487.164429</ele>
        <time>2013-03-07T12:43:30Z</time>
      </trkpt>
      <trkpt lat="43.73362" lon="3.5307">
        <ele>486.81601</ele>
        <time>2013-03-07T12:43:55Z</time>
      </trkpt>
      <trkpt lat="43.73376" lon="3.53095">
        <ele>485.393555</ele>
        <time>2013-03-07T12:44:17Z</time>
      </trkpt>
      <trkpt lat="43.73386" lon="3.53128">
        <ele>482.928131</ele>
        <time>2013-03-07T12:44:39Z</time>
      </trkpt>
      <trkpt lat="43.73408" lon="3.53159">
        <ele>483.947296</ele>
        <time>2013-03-07T12:45:03Z</time>
      </trkpt>
      <trkpt lat="43.73403" lon="3.53182">
        <ele>484.583191</ele>
        <time>2013-03-07T12:45:19Z</time>
      </trkpt>
      <trkpt lat="43.73388" lon="3.53206">
        <ele>482.953003</ele>
        <time>2013-03-07T12:45:39Z</time>
      </trkpt>
      <trkpt lat="43.73375" lon="3.53225">
        <ele>481.047974</ele>
        <time>2013-03-07T12:45:54Z</time>
      </trkpt>
      <trkpt lat="43.73361" lon="3.53239">
        <ele>479.35968</ele>
        <time>2013-03-07T12:46:09Z</time>
      </trkpt>
      <trkpt lat="43.73359" lon="3.53241">
        <ele>479.088654</ele>
        <time>2013-03-07T12:46:12Z</time>
      </trkpt>
      <trkpt lat="43.73348" lon="3.53257">
        <ele>477.918396</ele>
        <time>2013-03-07T12:46:25Z</time>
      </trkpt>
      <trkpt lat="43.73348" lon="3.53259">
        <ele>478.062103</ele>
        <time>2013-03-07T12:46:27Z</time>
      </trkpt>
      <trkpt lat="43.73342" lon="3.53268">
        <ele>477.365631</ele>
        <time>2013-03-07T12:46:34Z</time>
      </trkpt>
      <trkpt lat="43.73338" lon="3.53279">
        <ele>477.171234</ele>
        <time>2013-03-07T12:46:40Z</time>
      </trkpt>
      <trkpt lat="43.73345" lon="3.53304">
        <ele>476.978058</ele>
        <time>2013-03-07T12:46:57Z</time>
      </trkpt>
      <trkpt lat="43.73353" lon="3.5332">
        <ele>476.928497</ele>
        <time>2013-03-07T12:47:08Z</time>
      </trkpt>
      <trkpt lat="43.73359" lon="3.53349">
        <ele>474.786499</ele>
        <time>2013-03-07T12:47:29Z</time>
      </trkpt>
      <trkpt lat="43.73369" lon="3.53381">
        <ele>475.822876</ele>
        <time>2013-03-07T12:47:48Z</time>
      </trkpt>
      <trkpt lat="43.73372" lon="3.53398">
        <ele>476.321411</ele>
        <time>2013-03-07T12:48:02Z</time>
      </trkpt>
      <trkpt lat="43.7336" lon="3.53429">
        <ele>472.183594</ele>
        <time>2013-03-07T12:48:23Z</time>
      </trkpt>
      <trkpt lat="43.73346" lon="3.53464">
        <ele>469.693756</ele>
        <time>2013-03-07T12:48:51Z</time>
      </trkpt>
      <trkpt lat="43.73339" lon="3.53482">
        <ele>467.419434</ele>
        <time>2013-03-07T12:49:11Z</time>
      </trkpt>
      <trkpt lat="43.73331" lon="3.53503">
        <ele>462.679443</ele>
        <time>2013-03-07T12:49:53Z</time>
      </trkpt>
      <trkpt lat="43.73338" lon="3.53501">
        <ele>463.441345</ele>
        <time>2013-03-07T12:50:02Z</time>
      </trkpt>
      <trkpt lat="43.73357" lon="3.53495">
        <ele>465.909241</ele>
        <time>2013-03-07T12:50:22Z</time>
      </trkpt>
      <trkpt lat="43.73371" lon="3.53503">
        <ele>464.587646</ele>
        <time>2013-03-07T12:50:37Z</time>
      </trkpt>
      <trkpt lat="43.73393" lon="3.5351">
        <ele>465.105621</ele>
        <time>2013-03-07T12:51:04Z</time>
      </trkpt>
      <trkpt lat="43.73396" lon="3.53512">
        <ele>464.711914</ele>
        <time>2013-03-07T12:51:32Z</time>
      </trkpt>
      <trkpt lat="43.73409" lon="3.53527">
        <ele>461.155396</ele>
        <time>2013-03-07T12:52:07Z</time>
      </trkpt>
      <trkpt lat="43.73392" lon="3.53523">
        <ele>460.051331</ele>
        <time>2013-03-07T12:52:27Z</time>
      </trkpt>
      <trkpt lat="43.73373" lon="3.53532">
        <ele>454.806488</ele>
        <time>2013-03-07T12:52:46Z</time>
      </trkpt>
      <trkpt lat="43.73366" lon="3.53534">
        <ele>454.743286</ele>
        <time>2013-03-07T12:52:53Z</time>
      </trkpt>
      <trkpt lat="43.73369" lon="3.53538">
        <ele>453.032257</ele>
        <time>2013-03-07T12:53:12Z</time>
      </trkpt>
      <trkpt lat="43.73378" lon="3.53539">
        <ele>451.978882</ele>
        <time>2013-03-07T12:53:19Z</time>
      </trkpt>
      <trkpt lat="43.73393" lon="3.53546">
        <ele>450.891205</ele>
        <time>2013-03-07T12:53:43Z</time>
      </trkpt>
      <trkpt lat="43.73378" lon="3.53554">
        <ele>445.154907</ele>
        <time>2013-03-07T12:54:01Z</time>
      </trkpt>
      <trkpt lat="43.7336" lon="3.53563">
        <ele>443.87735</ele>
        <time>2013-03-07T12:54:20Z</time>
      </trkpt>
      <trkpt lat="43.73346" lon="3.53576">
        <ele>442.072144</ele>
        <time>2013-03-07T12:54:34Z</time>
      </trkpt>
      <trkpt lat="43.73333" lon="3.5359">
        <ele>440.606567</ele>
        <time>2013-03-07T12:54:53Z</time>
      </trkpt>
      <trkpt lat="43.73323" lon="3.5361">
        <ele>436.308899</ele>
        <time>2013-03-07T12:55:14Z</time>
      </trkpt>
      <trkpt lat="43.73334" lon="3.53602">
        <ele>436.43222</ele>
        <time>2013-03-07T12:55:41Z</time>
      </trkpt>
      <trkpt lat="43.73354" lon="3.53594">
        <ele>433.414856</ele>
        <time>2013-03-07T12:56:07Z</time>
      </trkpt>
      <trkpt lat="43.73373" lon="3.53597">
        <ele>426.731598</ele>
        <time>2013-03-07T12:56:31Z</time>
      </trkpt>
      <trkpt lat="43.73388" lon="3.53598">
        <ele>425.737793</ele>
        <time>2013-03-07T12:56:52Z</time>
      </trkpt>
      <trkpt lat="43.73395" lon="3.53602">
        <ele>424.358887</ele>
        <time>2013-03-07T12:56:58Z</time>
      </trkpt>
      <trkpt lat="43.73407" lon="3.53607">
        <ele>422.449371</ele>
        <time>2013-03-07T12:57:08Z</time>
      </trkpt>
      <trkpt lat="43.73411" lon="3.53608">
        <ele>422.400146</ele>
        <time>2013-03-07T12:57:24Z</time>
      </trkpt>
      <trkpt lat="43.73421" lon="3.53616">
        <ele>418.737244</ele>
        <time>2013-03-07T12:57:47Z</time>
      </trkpt>
      <trkpt lat="43.73427" lon="3.53622">
        <ele>417.56839</ele>
        <time>2013-03-07T12:58:15Z</time>
      </trkpt>
      <trkpt lat="43.73438" lon="3.53633">
        <ele>414.91098</ele>
        <time>2013-03-07T12:59:35Z</time>
      </trkpt>
      <trkpt lat="43.73439" lon="3.53633">
        <ele>414.707825</ele>
        <time>2013-03-07T12:59:36Z</time>
      </trkpt>
      <trkpt lat="43.73449" lon="3.53646">
        <ele>410.615723</ele>
        <time>2013-03-07T12:59:52Z</time>
      </trkpt>
      <trkpt lat="43.73451" lon="3.53649">
        <ele>409.534851</ele>
        <time>2013-03-07T12:59:55Z</time>
      </trkpt>
      <trkpt lat="43.73455" lon="3.53651">
        <ele>409.388977</ele>
        <time>2013-03-07T12:59:59Z</time>
      </trkpt>
      <trkpt lat="43.73469" lon="3.53667">
        <ele>404.083588</ele>
        <time>2013-03-07T13:00:16Z</time>
      </trkpt>
      <trkpt lat="43.73482" lon="3.53678">
        <ele>401.115204</ele>
        <time>2013-03-07T13:00:34Z</time>
      </trkpt>
      <trkpt lat="43.73494" lon="3.53686">
        <ele>399.548004</ele>
        <time>2013-03-07T13:00:49Z</time>
      </trkpt>
      <trkpt lat="43.73504" lon="3.53701">
        <ele>396.34082</ele>
        <time>2013-03-07T13:01:06Z</time>
      </trkpt>
      <trkpt lat="43.73523" lon="3.53715">
        <ele>388.936859</ele>
        <time>2013-03-07T13:01:28Z</time>
      </trkpt>
      <trkpt lat="43.73538" lon="3.53721">
        <ele>384.697113</ele>
        <time>2013-03-07T13:01:45Z</time>
      </trkpt>
      <trkpt lat="43.73553" lon="3.53721">
        <ele>381.400604</ele>
        <time>2013-03-07T13:02:02Z</time>
      </trkpt>
      <trkpt lat="43.73555" lon="3.53713">
        <ele>376.686066</ele>
        <time>2013-03-07T13:02:16Z</time>
      </trkpt>
      <trkpt lat="43.73554" lon="3.53725">
        <ele>382.527069</ele>
        <time>2013-03-07T13:04:11Z</time>
      </trkpt>
      <trkpt lat="43.73557" lon="3.53731">
        <ele>379.752838</ele>
        <time>2013-03-07T13:04:17Z</time>
      </trkpt>
      <trkpt lat="43.7357" lon="3.53749">
        <ele>367.307495</ele>
        <time>2013-03-07T13:04:36Z</time>
      </trkpt>
      <trkpt lat="43.73585" lon="3.53753">
        <ele>356.508301</ele>
        <time>2013-03-07T13:04:53Z</time>
      </trkpt>
      <trkpt lat="43.73585" lon="3.53757">
        <ele>357.721008</ele>
        <time>2013-03-07T13:04:57Z</time>
      </trkpt>
      <trkpt lat="43.73583" lon="3.53759">
        <ele>359.841217</ele>
        <time>2013-03-07T13:05:00Z</time>
      </trkpt>
      <trkpt lat="43.73572" lon="3.53761">
        <ele>368.011597</ele>
        <time>2013-03-07T13:05:12Z</time>
      </trkpt>
      <trkpt lat="43.73555" lon="3.53755">
        <ele>379.226685</ele>
        <time>2013-03-07T13:05:30Z</time>
      </trkpt>
      <trkpt lat="43.73538" lon="3.5375">
        <ele>380.122192</ele>
        <time>2013-03-07T13:05:48Z</time>
      </trkpt>
      <trkpt lat="43.7352" lon="3.53752">
        <ele>378.54425</ele>
        <time>2013-03-07T13:06:05Z</time>
      </trkpt>
      <trkpt lat="43.73505" lon="3.53746">
        <ele>379.029938</ele>
        <time>2013-03-07T13:06:27Z</time>
      </trkpt>
      <trkpt lat="43.73498" lon="3.53738">
        <ele>381.067535</ele>
        <time>2013-03-07T13:06:37Z</time>
      </trkpt>
      <trkpt lat="43.73487" lon="3.53729">
        <ele>382.173492</ele>
        <time>2013-03-07T13:06:51Z</time>
      </trkpt>
      <trkpt lat="43.73471" lon="3.53728">
        <ele>378.690033</ele>
        <time>2013-03-07T13:07:07Z</time>
      </trkpt>
      <trkpt lat="43.73465" lon="3.53722">
        <ele>379.97876</ele>
        <time>2013-03-07T13:07:16Z</time>
      </trkpt>
      <trkpt lat="43.73446" lon="3.5372">
        <ele>375.794159</ele>
        <time>2013-03-07T13:07:32Z</time>
      </trkpt>
      <trkpt lat="43.73441" lon="3.5372">
        <ele>374.158936</ele>
        <time>2013-03-07T13:07:35Z</time>
      </trkpt>
      <trkpt lat="43.73424" lon="3.53722">
        <ele>368.70401</ele>
        <time>2013-03-07T13:07:49Z</time>
      </trkpt>
      <trkpt lat="43.7341" lon="3.53729">
        <ele>364.391388</ele>
        <time>2013-03-07T13:08:02Z</time>
      </trkpt>
      <trkpt lat="43.73399" lon="3.53742">
        <ele>358.941925</ele>
        <time>2013-03-07T13:08:16Z</time>
      </trkpt>
      <trkpt lat="43.73389" lon="3.53749">
        <ele>356.847656</ele>
        <time>2013-03-07T13:08:32Z</time>
      </trkpt>
      <trkpt lat="43.73373" lon="3.53765">
        <ele>352.086273</ele>
        <time>2013-03-07T13:08:52Z</time>
      </trkpt>
      <trkpt lat="43.73353" lon="3.53787">
        <ele>352.563873</ele>
        <time>2013-03-07T13:09:13Z</time>
      </trkpt>
      <trkpt lat="43.73348" lon="3.5381">
        <ele>349.878052</ele>
        <time>2013-03-07T13:09:33Z</time>
      </trkpt>
      <trkpt lat="43.73351" lon="3.53819">
        <ele>345.662506</ele>
        <time>2013-03-07T13:09:40Z</time>
      </trkpt>
      <trkpt lat="43.7334" lon="3.53846">
        <ele>346.694336</ele>
        <time>2013-03-07T13:09:59Z</time>
      </trkpt>
      <trkpt lat="43.7334" lon="3.53847">
        <ele>346.815063</ele>
        <time>2013-03-07T13:10:00Z</time>
      </trkpt>
      <trkpt lat="43.73342" lon="3.53849">
        <ele>345.628174</ele>
        <time>2013-03-07T13:10:02Z</time>
      </trkpt>
      <trkpt lat="43.7334" lon="3.53853">
        <ele>346.15979</ele>
        <time>2013-03-07T13:10:05Z</time>
      </trkpt>
      <trkpt lat="43.73341" lon="3.5388">
        <ele>343.179382</ele>
        <time>2013-03-07T13:10:24Z</time>
      </trkpt>
      <trkpt lat="43.73342" lon="3.53908">
        <ele>339.600006</ele>
        <time>2013-03-07T13:10:43Z</time>
      </trkpt>
      <trkpt lat="43.73346" lon="3.53928">
        <ele>336.799988</ele>
        <time>2013-03-07T13:11:01Z</time>
      </trkpt>
      <trkpt lat="43.73351" lon="3.53934">
        <ele>333.279999</ele>
        <time>2013-03-07T13:11:14Z</time>
      </trkpt>
      <trkpt lat="43.7336" lon="3.53921">
        <ele>326.640015</ele>
        <time>2013-03-07T13:11:28Z</time>
      </trkpt>
      <trkpt lat="43.73372" lon="3.53887">
        <ele>320.341614</ele>
        <time>2013-03-07T13:11:50Z</time>
      </trkpt>
      <trkpt lat="43.73367" lon="3.53901">
        <ele>322.66095</ele>
        <time>2013-03-07T13:12:07Z</time>
      </trkpt>
      <trkpt lat="43.73369" lon="3.53924">
        <ele>320.559998</ele>
        <time>2013-03-07T13:12:25Z</time>
      </trkpt>
      <trkpt lat="43.73367" lon="3.53939">
        <ele>322</ele>
        <time>2013-03-07T13:12:37Z</time>
      </trkpt>
      <trkpt lat="43.73377" lon="3.53966">
        <ele>314.546844</ele>
        <time>2013-03-07T13:12:57Z</time>
      </trkpt>
      <trkpt lat="43.73377" lon="3.53993">
        <ele>314.728577</ele>
        <time>2013-03-07T13:13:15Z</time>
      </trkpt>
      <trkpt lat="43.73385" lon="3.54014">
        <ele>309.517761</ele>
        <time>2013-03-07T13:13:30Z</time>
      </trkpt>
      <trkpt lat="43.73395" lon="3.54035">
        <ele>304.13736</ele>
        <time>2013-03-07T13:13:49Z</time>
      </trkpt>
      <trkpt lat="43.73399" lon="3.54062">
        <ele>303.882782</ele>
        <time>2013-03-07T13:14:07Z</time>
      </trkpt>
      <trkpt lat="43.73406" lon="3.54085">
        <ele>301.120239</ele>
        <time>2013-03-07T13:14:25Z</time>
      </trkpt>
      <trkpt lat="43.7341" lon="3.54105">
        <ele>300.809998</ele>
        <time>2013-03-07T13:14:42Z</time>
      </trkpt>
      <trkpt lat="43.73417" lon="3.54129">
        <ele>299.103882</ele>
        <time>2013-03-07T13:15:02Z</time>
      </trkpt>
      <trkpt lat="43.73423" lon="3.54137">
        <ele>296.245667</ele>
        <time>2013-03-07T13:15:15Z</time>
      </trkpt>
      <trkpt lat="43.73423" lon="3.54137">
        <ele>295.890076</ele>
        <time>2013-03-07T13:15:50Z</time>
      </trkpt>
      <trkpt lat="43.7342" lon="3.54126">
        <ele>296.361725</ele>
        <time>2013-03-07T13:16:07Z</time>
      </trkpt>
      <trkpt lat="43.73415" lon="3.54105">
        <ele>296.654999</ele>
        <time>2013-03-07T13:16:19Z</time>
      </trkpt>
      <trkpt lat="43.73415" lon="3.5408">
        <ele>294.131653</ele>
        <time>2013-03-07T13:16:37Z</time>
      </trkpt>
      <trkpt lat="43.73413" lon="3.54053">
        <ele>293.410553</ele>
        <time>2013-03-07T13:16:52Z</time>
      </trkpt>
      <trkpt lat="43.73412" lon="3.54043">
        <ele>293.553284</ele>
        <time>2013-03-07T13:16:58Z</time>
      </trkpt>
      <trkpt lat="43.73411" lon="3.54037">
        <ele>293.496735</ele>
        <time>2013-03-07T13:17:01Z</time>
      </trkpt>
      <trkpt lat="43.73416" lon="3.54009">
        <ele>288.963043</ele>
        <time>2013-03-07T13:17:16Z</time>
      </trkpt>
      <trkpt lat="43.73412" lon="3.53983">
        <ele>289.986206</ele>
        <time>2013-03-07T13:17:32Z</time>
      </trkpt>
      <trkpt lat="43.73417" lon="3.53982">
        <ele>286.365265</ele>
        <time>2013-03-07T13:17:37Z</time>
      </trkpt>
      <trkpt lat="43.73426" lon="3.53988">
        <ele>279.896057</ele>
        <time>2013-03-07T13:17:49Z</time>
      </trkpt>
      <trkpt lat="43.73429" lon="3.53997">
        <ele>278.406708</ele>
        <time>2013-03-07T13:17:56Z</time>
      </trkpt>
      <trkpt lat="43.73431" lon="3.54004">
        <ele>277.792694</ele>
        <time>2013-03-07T13:18:00Z</time>
      </trkpt>
      <trkpt lat="43.73437" lon="3.54013">
        <ele>274.097717</ele>
        <time>2013-03-07T13:18:06Z</time>
      </trkpt>
      <trkpt lat="43.73438" lon="3.5402">
        <ele>273.850861</ele>
        <time>2013-03-07T13:18:10Z</time>
      </trkpt>
      <trkpt lat="43.73438" lon="3.54037">
        <ele>275.189301</ele>
        <time>2013-03-07T13:18:23Z</time>
      </trkpt>
      <trkpt lat="43.73441" lon="3.54051">
        <ele>274.029297</ele>
        <time>2013-03-07T13:18:33Z</time>
      </trkpt>
      <trkpt lat="43.73448" lon="3.54078">
        <ele>271.769806</ele>
        <time>2013-03-07T13:18:51Z</time>
      </trkpt>
      <trkpt lat="43.73453" lon="3.54104">
        <ele>270.85791</ele>
        <time>2013-03-07T13:19:11Z</time>
      </trkpt>
      <trkpt lat="43.73457" lon="3.54124">
        <ele>270.525055</ele>
        <time>2013-03-07T13:19:29Z</time>
      </trkpt>
      <trkpt lat="43.73465" lon="3.54145">
        <ele>268.165405</ele>
        <time>2013-03-07T13:19:47Z</time>
      </trkpt>
      <trkpt lat="43.73482" lon="3.54176">
        <ele>260.10434</ele>
        <time>2013-03-07T13:20:05Z</time>
      </trkpt>
      <trkpt lat="43.73489" lon="3.54191">
        <ele>257.277039</ele>
        <time>2013-03-07T13:20:20Z</time>
      </trkpt>
      <trkpt lat="43.73488" lon="3.54183">
        <ele>256.864319</ele>
        <time>2013-03-07T13:20:25Z</time>
      </trkpt>
      <trkpt lat="43.73484" lon="3.54161">
        <ele>257.484161</ele>
        <time>2013-03-07T13:20:38Z</time>
      </trkpt>
      <trkpt lat="43.73477" lon="3.54152">
        <ele>260.681824</ele>
        <time>2013-03-07T13:20:44Z</time>
      </trkpt>
      <trkpt lat="43.73476" lon="3.54146">
        <ele>260.863525</ele>
        <time>2013-03-07T13:20:48Z</time>
      </trkpt>
      <trkpt lat="43.73476" lon="3.54138">
        <ele>259.944305</ele>
        <time>2013-03-07T13:20:54Z</time>
      </trkpt>
      <trkpt lat="43.73483" lon="3.54129">
        <ele>254.21312</ele>
        <time>2013-03-07T13:21:02Z</time>
      </trkpt>
      <trkpt lat="43.73485" lon="3.54121">
        <ele>252.368622</ele>
        <time>2013-03-07T13:21:07Z</time>
      </trkpt>
      <trkpt lat="43.73484" lon="3.541">
        <ele>250.445419</ele>
        <time>2013-03-07T13:21:22Z</time>
      </trkpt>
      <trkpt lat="43.73489" lon="3.54082">
        <ele>246.25032</ele>
        <time>2013-03-07T13:21:33Z</time>
      </trkpt>
      <trkpt lat="43.73491" lon="3.5407">
        <ele>244.125961</ele>
        <time>2013-03-07T13:21:39Z</time>
      </trkpt>
      <trkpt lat="43.73489" lon="3.54052">
        <ele>243.596405</ele>
        <time>2013-03-07T13:21:51Z</time>
      </trkpt>
      <trkpt lat="43.73489" lon="3.54049">
        <ele>243.476379</ele>
        <time>2013-03-07T13:21:52Z</time>
      </trkpt>
      <trkpt lat="43.73487" lon="3.54032">
        <ele>243.414063</ele>
        <time>2013-03-07T13:22:00Z</time>
      </trkpt>
      <trkpt lat="43.73485" lon="3.54025">
        <ele>244.430756</ele>
        <time>2013-03-07T13:22:04Z</time>
      </trkpt>
      <trkpt lat="43.73479" lon="3.54012">
        <ele>247.509659</ele>
        <time>2013-03-07T13:22:07Z</time>
      </trkpt>
      <trkpt lat="43.73484" lon="3.54006">
        <ele>244.763565</ele>
        <time>2013-03-07T13:22:12Z</time>
      </trkpt>
      <trkpt lat="43.73484" lon="3.53986">
        <ele>244.116257</ele>
        <time>2013-03-07T13:22:27Z</time>
      </trkpt>
      <trkpt lat="43.73483" lon="3.53965">
        <ele>246.223099</ele>
        <time>2013-03-07T13:22:41Z</time>
      </trkpt>
      <trkpt lat="43.73477" lon="3.53945">
        <ele>253.574188</ele>
        <time>2013-03-07T13:22:54Z</time>
      </trkpt>
      <trkpt lat="43.73484" lon="3.53944">
        <ele>252.825974</ele>
        <time>2013-03-07T13:23:03Z</time>
      </trkpt>
      <trkpt lat="43.73502" lon="3.53952">
        <ele>246.277054</ele>
        <time>2013-03-07T13:23:21Z</time>
      </trkpt>
      <trkpt lat="43.73508" lon="3.53962">
        <ele>240.297623</ele>
        <time>2013-03-07T13:23:36Z</time>
      </trkpt>
      <trkpt lat="43.73517" lon="3.53964">
        <ele>239.74028</ele>
        <time>2013-03-07T13:24:05Z</time>
      </trkpt>
      <trkpt lat="43.73531" lon="3.53968">
        <ele>238.117249</ele>
        <time>2013-03-07T13:24:19Z</time>
      </trkpt>
      <trkpt lat="43.73541" lon="3.53971">
        <ele>236.611237</ele>
        <time>2013-03-07T13:24:27Z</time>
      </trkpt>
      <trkpt lat="43.73566" lon="3.5397">
        <ele>234.42897</ele>
        <time>2013-03-07T13:24:42Z</time>
      </trkpt>
      <trkpt lat="43.73575" lon="3.53971">
        <ele>231.825333</ele>
        <time>2013-03-07T13:24:53Z</time>
      </trkpt>
      <trkpt lat="43.73564" lon="3.53977">
        <ele>230.621872</ele>
        <time>2013-03-07T13:25:07Z</time>
      </trkpt>
      <trkpt lat="43.73564" lon="3.53977">
        <ele>230.621872</ele>
        <time>2013-03-07T13:25:26Z</time>
      </trkpt>
      <trkpt lat="43.73564" lon="3.53977">
        <ele>230.621872</ele>
        <time>2013-03-07T13:25:27Z</time>
      </trkpt>
      <trkpt lat="43.73545" lon="3.53997">
        <ele>224.608551</ele>
        <time>2013-03-07T13:25:41Z</time>
      </trkpt>
      <trkpt lat="43.73546" lon="3.53982">
        <ele>231.425934</ele>
        <time>2013-03-07T13:28:40Z</time>
      </trkpt>
      <trkpt lat="43.73541" lon="3.53984">
        <ele>230.83252</ele>
        <time>2013-03-07T13:28:45Z</time>
      </trkpt>
      <trkpt lat="43.73518" lon="3.53985">
        <ele>232.971924</ele>
        <time>2013-03-07T13:29:08Z</time>
      </trkpt>
      <trkpt lat="43.73516" lon="3.53999">
        <ele>230.994507</ele>
        <time>2013-03-07T13:29:21Z</time>
      </trkpt>
      <trkpt lat="43.73522" lon="3.54014">
        <ele>226.25853</ele>
        <time>2013-03-07T13:29:39Z</time>
      </trkpt>
      <trkpt lat="43.7353" lon="3.54026">
        <ele>219.577087</ele>
        <time>2013-03-07T13:29:51Z</time>
      </trkpt>
      <trkpt lat="43.73534" lon="3.54063">
        <ele>215.258835</ele>
        <time>2013-03-07T13:30:16Z</time>
      </trkpt>
      <trkpt lat="43.73541" lon="3.54109">
        <ele>214.087494</ele>
        <time>2013-03-07T13:30:44Z</time>
      </trkpt>
      <trkpt lat="43.73544" lon="3.54128">
        <ele>215.010941</ele>
        <time>2013-03-07T13:31:03Z</time>
      </trkpt>
      <trkpt lat="43.73548" lon="3.54146">
        <ele>215.773071</ele>
        <time>2013-03-07T13:31:20Z</time>
      </trkpt>
      <trkpt lat="43.73551" lon="3.54175">
        <ele>217.339996</ele>
        <time>2013-03-07T13:31:38Z</time>
      </trkpt>
      <trkpt lat="43.7356" lon="3.5418">
        <ele>213.634995</ele>
        <time>2013-03-07T13:31:46Z</time>
      </trkpt>
      <trkpt lat="43.73576" lon="3.54205">
        <ele>208.154999</ele>
        <time>2013-03-07T13:32:04Z</time>
      </trkpt>
      <trkpt lat="43.73578" lon="3.5422">
        <ele>208.115005</ele>
        <time>2013-03-07T13:32:12Z</time>
      </trkpt>
      <trkpt lat="43.73587" lon="3.54245">
        <ele>201.516769</ele>
        <time>2013-03-07T13:32:32Z</time>
      </trkpt>
      <trkpt lat="43.73599" lon="3.54258">
        <ele>194.358582</ele>
        <time>2013-03-07T13:32:55Z</time>
      </trkpt>
      <trkpt lat="43.73605" lon="3.54233">
        <ele>194.073456</ele>
        <time>2013-03-07T13:33:16Z</time>
      </trkpt>
      <trkpt lat="43.7361" lon="3.54193">
        <ele>190.440002</ele>
        <time>2013-03-07T13:33:40Z</time>
      </trkpt>
      <trkpt lat="43.7361" lon="3.54158">
        <ele>188.159836</ele>
        <time>2013-03-07T13:34:04Z</time>
      </trkpt>
      <trkpt lat="43.7361" lon="3.54151">
        <ele>187.217926</ele>
        <time>2013-03-07T13:34:08Z</time>
      </trkpt>
      <trkpt lat="43.7362" lon="3.5415">
        <ele>181.671249</ele>
        <time>2013-03-07T13:34:27Z</time>
      </trkpt>
      <trkpt lat="43.73625" lon="3.54172">
        <ele>181.580002</ele>
        <time>2013-03-07T13:34:42Z</time>
      </trkpt>
      <trkpt lat="43.73635" lon="3.542">
        <ele>177.455002</ele>
        <time>2013-03-07T13:35:04Z</time>
      </trkpt>
      <trkpt lat="43.73639" lon="3.54213">
        <ele>176.289993</ele>
        <time>2013-03-07T13:35:13Z</time>
      </trkpt>
      <trkpt lat="43.73642" lon="3.54239">
        <ele>173.948578</ele>
        <time>2013-03-07T13:35:41Z</time>
      </trkpt>
      <trkpt lat="43.73641" lon="3.5427">
        <ele>171.482376</ele>
        <time>2013-03-07T13:36:14Z</time>
      </trkpt>
      <trkpt lat="43.7364" lon="3.54277">
        <ele>171.224182</ele>
        <time>2013-03-07T13:36:42Z</time>
      </trkpt>
      <trkpt lat="43.73643" lon="3.54296">
        <ele>166.95134</ele>
        <time>2013-03-07T13:36:54Z</time>
      </trkpt>
      <trkpt lat="43.73625" lon="3.54318">
        <ele>170.476257</ele>
        <time>2013-03-07T13:37:13Z</time>
      </trkpt>
      <trkpt lat="43.73625" lon="3.54321">
        <ele>169.817505</ele>
        <time>2013-03-07T13:37:16Z</time>
      </trkpt>
      <trkpt lat="43.73624" lon="3.54329">
        <ele>168.783752</ele>
        <time>2013-03-07T13:37:22Z</time>
      </trkpt>
      <trkpt lat="43.73614" lon="3.54347">
        <ele>169.776855</ele>
        <time>2013-03-07T13:37:35Z</time>
      </trkpt>
      <trkpt lat="43.73616" lon="3.54357">
        <ele>167.882248</ele>
        <time>2013-03-07T13:37:42Z</time>
      </trkpt>
      <trkpt lat="43.7362" lon="3.5437">
        <ele>163.928619</ele>
        <time>2013-03-07T13:37:55Z</time>
      </trkpt>
      <trkpt lat="43.73622" lon="3.54386">
        <ele>160.499451</ele>
        <time>2013-03-07T13:38:09Z</time>
      </trkpt>
      <trkpt lat="43.73619" lon="3.54416">
        <ele>158.030914</ele>
        <time>2013-03-07T13:38:28Z</time>
      </trkpt>
      <trkpt lat="43.73616" lon="3.54446">
        <ele>156.847488</ele>
        <time>2013-03-07T13:38:47Z</time>
      </trkpt>
      <trkpt lat="43.73611" lon="3.54475">
        <ele>157.361877</ele>
        <time>2013-03-07T13:39:06Z</time>
      </trkpt>
      <trkpt lat="43.73621" lon="3.54474">
        <ele>151.728394</ele>
        <time>2013-03-07T13:39:22Z</time>
      </trkpt>
      <trkpt lat="43.73637" lon="3.54451">
        <ele>144.912781</ele>
        <time>2013-03-07T13:39:44Z</time>
      </trkpt>
      <trkpt lat="43.73639" lon="3.54449">
        <ele>144.595505</ele>
        <time>2013-03-07T13:39:46Z</time>
      </trkpt>
      <trkpt lat="43.73645" lon="3.54414">
        <ele>146.313843</ele>
        <time>2013-03-07T13:40:06Z</time>
      </trkpt>
      <trkpt lat="43.73645" lon="3.54409">
        <ele>146.737122</ele>
        <time>2013-03-07T13:40:13Z</time>
      </trkpt>
      <trkpt lat="43.73651" lon="3.5441">
        <ele>144.065079</ele>
        <time>2013-03-07T13:40:17Z</time>
      </trkpt>
      <trkpt lat="43.73654" lon="3.54416">
        <ele>142.244705</ele>
        <time>2013-03-07T13:40:22Z</time>
      </trkpt>
      <trkpt lat="43.73649" lon="3.54442">
        <ele>140.746124</ele>
        <time>2013-03-07T13:40:40Z</time>
      </trkpt>
      <trkpt lat="43.73646" lon="3.54455">
        <ele>140.308868</ele>
        <time>2013-03-07T13:40:51Z</time>
      </trkpt>
      <trkpt lat="43.73645" lon="3.54476">
        <ele>137.888901</ele>
        <time>2013-03-07T13:41:07Z</time>
      </trkpt>
      <trkpt lat="43.73643" lon="3.5451">
        <ele>133.66481</ele>
        <time>2013-03-07T13:41:29Z</time>
      </trkpt>
      <trkpt lat="43.73645" lon="3.54533">
        <ele>128.574097</ele>
        <time>2013-03-07T13:41:44Z</time>
      </trkpt>
      <trkpt lat="43.73645" lon="3.54549">
        <ele>127.457268</ele>
        <time>2013-03-07T13:41:58Z</time>
      </trkpt>
      <trkpt lat="43.73645" lon="3.54573">
        <ele>126.334373</ele>
        <time>2013-03-07T13:42:14Z</time>
      </trkpt>
      <trkpt lat="43.73642" lon="3.54591">
        <ele>126.484833</ele>
        <time>2013-03-07T13:42:30Z</time>
      </trkpt>
      <trkpt lat="43.73639" lon="3.54609">
        <ele>127.583397</ele>
        <time>2013-03-07T13:42:45Z</time>
      </trkpt>
      <trkpt lat="43.73632" lon="3.54633">
        <ele>130.549377</ele>
        <time>2013-03-07T13:43:02Z</time>
      </trkpt>
      <trkpt lat="43.73639" lon="3.54652">
        <ele>126.443344</ele>
        <time>2013-03-07T13:43:17Z</time>
      </trkpt>
      <trkpt lat="43.73641" lon="3.54652">
        <ele>125.603493</ele>
        <time>2013-03-07T13:43:18Z</time>
      </trkpt>
      <trkpt lat="43.73671" lon="3.54661">
        <ele>114.790298</ele>
        <time>2013-03-07T13:43:37Z</time>
      </trkpt>
      <trkpt lat="43.7368" lon="3.54654">
        <ele>112.224388</ele>
        <time>2013-03-07T13:43:56Z</time>
      </trkpt>
      <trkpt lat="43.7369" lon="3.54645">
        <ele>115.12001</ele>
        <time>2013-03-07T13:44:30Z</time>
      </trkpt>
      <trkpt lat="43.73686" lon="3.5466">
        <ele>115.244896</ele>
        <time>2013-03-07T13:45:00Z</time>
      </trkpt>
      <trkpt lat="43.73682" lon="3.54666">
        <ele>114.016502</ele>
        <time>2013-03-07T13:45:05Z</time>
      </trkpt>
      <trkpt lat="43.73671" lon="3.547">
        <ele>115.248314</ele>
        <time>2013-03-07T13:45:27Z</time>
      </trkpt>
      <trkpt lat="43.73669" lon="3.54718">
        <ele>115.637825</ele>
        <time>2013-03-07T13:45:42Z</time>
      </trkpt>
      <trkpt lat="43.7367" lon="3.54729">
        <ele>115.747124</ele>
        <time>2013-03-07T13:45:48Z</time>
      </trkpt>
      <trkpt lat="43.73671" lon="3.54737">
        <ele>115.963753</ele>
        <time>2013-03-07T13:45:53Z</time>
      </trkpt>
      <trkpt lat="43.73671" lon="3.5475">
        <ele>116.304626</ele>
        <time>2013-03-07T13:46:01Z</time>
      </trkpt>
      <trkpt lat="43.73666" lon="3.54768">
        <ele>115.656059</ele>
        <time>2013-03-07T13:46:15Z</time>
      </trkpt>
      <trkpt lat="43.73663" lon="3.54773">
        <ele>114.686874</ele>
        <time>2013-03-07T13:46:21Z</time>
      </trkpt>
      <trkpt lat="43.73651" lon="3.5478">
        <ele>110.338562</ele>
        <time>2013-03-07T13:46:30Z</time>
      </trkpt>
      <trkpt lat="43.73643" lon="3.54782">
        <ele>107.081772</ele>
        <time>2013-03-07T13:46:37Z</time>
      </trkpt>
      <trkpt lat="43.73637" lon="3.54786">
        <ele>106.159393</ele>
        <time>2013-03-07T13:46:42Z</time>
      </trkpt>
      <trkpt lat="43.73634" lon="3.5479">
        <ele>106.023163</ele>
        <time>2013-03-07T13:46:45Z</time>
      </trkpt>
      <trkpt lat="43.73624" lon="3.5479">
        <ele>105.425072</ele>
        <time>2013-03-07T13:46:55Z</time>
      </trkpt>
      <trkpt lat="43.73613" lon="3.54792">
        <ele>105.619934</ele>
        <time>2013-03-07T13:47:09Z</time>
      </trkpt>
      <trkpt lat="43.73606" lon="3.54795">
        <ele>106.498123</ele>
        <time>2013-03-07T13:47:21Z</time>
      </trkpt>
      <trkpt lat="43.73581" lon="3.54796">
        <ele>105.975677</ele>
        <time>2013-03-07T13:47:39Z</time>
      </trkpt>
      <trkpt lat="43.73559" lon="3.54796">
        <ele>104.202187</ele>
        <time>2013-03-07T13:47:58Z</time>
      </trkpt>
      <trkpt lat="43.73552" lon="3.54802">
        <ele>105.186501</ele>
        <time>2013-03-07T13:48:11Z</time>
      </trkpt>
      <trkpt lat="43.73525" lon="3.54809">
        <ele>104.513718</ele>
        <time>2013-03-07T13:48:34Z</time>
      </trkpt>
      <trkpt lat="43.73505" lon="3.54804">
        <ele>101.952347</ele>
        <time>2013-03-07T13:48:49Z</time>
      </trkpt>
      <trkpt lat="43.73503" lon="3.54804">
        <ele>101.636589</ele>
        <time>2013-03-07T13:48:52Z</time>
      </trkpt>
      <trkpt lat="43.73476" lon="3.54804">
        <ele>99.105301</ele>
        <time>2013-03-07T13:49:13Z</time>
      </trkpt>
      <trkpt lat="43.73468" lon="3.54827">
        <ele>97.281601</ele>
        <time>2013-03-07T13:49:25Z</time>
      </trkpt>
      <trkpt lat="43.73462" lon="3.54833">
        <ele>95.473602</ele>
        <time>2013-03-07T13:49:30Z</time>
      </trkpt>
      <trkpt lat="43.73453" lon="3.54835">
        <ele>92.859901</ele>
        <time>2013-03-07T13:49:37Z</time>
      </trkpt>
      <trkpt lat="43.73444" lon="3.54846">
        <ele>94.10775</ele>
        <time>2013-03-07T13:49:45Z</time>
      </trkpt>
      <trkpt lat="43.7344" lon="3.54856">
        <ele>96.7528</ele>
        <time>2013-03-07T13:49:53Z</time>
      </trkpt>
      <trkpt lat="43.73432" lon="3.54858">
        <ele>96.327446</ele>
        <time>2013-03-07T13:50:04Z</time>
      </trkpt>
      <trkpt lat="43.73424" lon="3.54868">
        <ele>96.573875</ele>
        <time>2013-03-07T13:50:13Z</time>
      </trkpt>
      <trkpt lat="43.73413" lon="3.54875">
        <ele>94.543922</ele>
        <time>2013-03-07T13:50:32Z</time>
      </trkpt>
      <trkpt lat="43.73414" lon="3.54887">
        <ele>95.302803</ele>
        <time>2013-03-07T13:51:47Z</time>
      </trkpt>
      <trkpt lat="43.73417" lon="3.54883">
        <ele>95.888802</ele>
        <time>2013-03-07T13:52:08Z</time>
      </trkpt>
      <trkpt lat="43.73412" lon="3.54934">
        <ele>102.946358</ele>
        <time>2013-03-07T13:52:30Z</time>
      </trkpt>
      <trkpt lat="43.73399" lon="3.54967">
        <ele>104.724091</ele>
        <time>2013-03-07T13:52:49Z</time>
      </trkpt>
      <trkpt lat="43.73393" lon="3.54979">
        <ele>103.106377</ele>
        <time>2013-03-07T13:52:56Z</time>
      </trkpt>
      <trkpt lat="43.73388" lon="3.54991">
        <ele>101.48494</ele>
        <time>2013-03-07T13:53:06Z</time>
      </trkpt>
      <trkpt lat="43.73378" lon="3.55">
        <ele>97.661003</ele>
        <time>2013-03-07T13:53:22Z</time>
      </trkpt>
      <trkpt lat="43.73378" lon="3.55008">
        <ele>97.782402</ele>
        <time>2013-03-07T13:53:52Z</time>
      </trkpt>
      <trkpt lat="43.73387" lon="3.55023">
        <ele>102.677872</ele>
        <time>2013-03-07T13:54:04Z</time>
      </trkpt>
      <trkpt lat="43.73388" lon="3.55044">
        <ele>101.668716</ele>
        <time>2013-03-07T13:54:22Z</time>
      </trkpt>
      <trkpt lat="43.73385" lon="3.55083">
        <ele>97.395706</ele>
        <time>2013-03-07T13:54:46Z</time>
      </trkpt>
      <trkpt lat="43.73384" lon="3.55118">
        <ele>95.363792</ele>
        <time>2013-03-07T13:55:10Z</time>
      </trkpt>
      <trkpt lat="43.73383" lon="3.55149">
        <ele>93.801605</ele>
        <time>2013-03-07T13:55:32Z</time>
      </trkpt>
      <trkpt lat="43.73383" lon="3.55188">
        <ele>91.479736</ele>
        <time>2013-03-07T13:55:54Z</time>
      </trkpt>
      <trkpt lat="43.73382" lon="3.55192">
        <ele>90.990211</ele>
        <time>2013-03-07T13:55:57Z</time>
      </trkpt>
      <trkpt lat="43.7338" lon="3.55197">
        <ele>90.265701</ele>
        <time>2013-03-07T13:56:01Z</time>
      </trkpt>
      <trkpt lat="43.7337" lon="3.55214">
        <ele>87.227966</ele>
        <time>2013-03-07T13:56:14Z</time>
      </trkpt>
      <trkpt lat="43.73376" lon="3.55246">
        <ele>87.343719</ele>
        <time>2013-03-07T13:56:27Z</time>
      </trkpt>
      <trkpt lat="43.7337" lon="3.55263">
        <ele>84.042877</ele>
        <time>2013-03-07T13:56:38Z</time>
      </trkpt>
      <trkpt lat="43.73359" lon="3.55291">
        <ele>79.421432</ele>
        <time>2013-03-07T13:56:56Z</time>
      </trkpt>
      <trkpt lat="43.73356" lon="3.55294">
        <ele>78.905167</ele>
        <time>2013-03-07T13:56:59Z</time>
      </trkpt>
      <trkpt lat="43.73353" lon="3.55298">
        <ele>79.773178</ele>
        <time>2013-03-07T13:57:04Z</time>
      </trkpt>
      <trkpt lat="43.73341" lon="3.55312">
        <ele>81.671936</ele>
        <time>2013-03-07T13:57:18Z</time>
      </trkpt>
      <trkpt lat="43.73348" lon="3.55337">
        <ele>80.524422</ele>
        <time>2013-03-07T13:57:27Z</time>
      </trkpt>
      <trkpt lat="43.73345" lon="3.55337">
        <ele>80.346024</ele>
        <time>2013-03-07T13:57:30Z</time>
      </trkpt>
      <trkpt lat="43.73331" lon="3.55336">
        <ele>79.618073</ele>
        <time>2013-03-07T13:57:38Z</time>
      </trkpt>
      <trkpt lat="43.73323" lon="3.5535">
        <ele>77.595734</ele>
        <time>2013-03-07T13:57:50Z</time>
      </trkpt>
      <trkpt lat="43.73305" lon="3.55374">
        <ele>72.431473</ele>
        <time>2013-03-07T13:58:04Z</time>
      </trkpt>
      <trkpt lat="43.73301" lon="3.55373">
        <ele>72.697624</ele>
        <time>2013-03-07T13:58:07Z</time>
      </trkpt>
      <trkpt lat="43.73285" lon="3.55375">
        <ele>72.260338</ele>
        <time>2013-03-07T13:58:22Z</time>
      </trkpt>
      <trkpt lat="43.73272" lon="3.55369">
        <ele>74.298592</ele>
        <time>2013-03-07T13:58:30Z</time>
      </trkpt>
      <trkpt lat="43.73261" lon="3.55366">
        <ele>74.732437</ele>
        <time>2013-03-07T13:58:38Z</time>
      </trkpt>
      <trkpt lat="43.73258" lon="3.55367">
        <ele>73.817299</ele>
        <time>2013-03-07T13:58:41Z</time>
      </trkpt>
      <trkpt lat="43.73248" lon="3.55368">
        <ele>72.42025</ele>
        <time>2013-03-07T13:58:48Z</time>
      </trkpt>
      <trkpt lat="43.73242" lon="3.55367">
        <ele>72.073792</ele>
        <time>2013-03-07T13:58:53Z</time>
      </trkpt>
      <trkpt lat="43.73241" lon="3.55366">
        <ele>71.996284</ele>
        <time>2013-03-07T13:58:55Z</time>
      </trkpt>
      <trkpt lat="43.73232" lon="3.55368">
        <ele>70.29084</ele>
        <time>2013-03-07T13:59:07Z</time>
      </trkpt>
      <trkpt lat="43.73221" lon="3.55354">
        <ele>73.534248</ele>
        <time>2013-03-07T13:59:15Z</time>
      </trkpt>
      <trkpt lat="43.73216" lon="3.55351">
        <ele>73.644676</ele>
        <time>2013-03-07T13:59:36Z</time>
      </trkpt>
      <trkpt lat="43.73218" lon="3.5535">
        <ele>74.237297</ele>
        <time>2013-03-07T13:59:56Z</time>
      </trkpt>
      <trkpt lat="43.73218" lon="3.5535">
        <ele>74.237297</ele>
        <time>2013-03-07T17:07:58Z</time>
      </trkpt>
      <trkpt lat="43.73218" lon="3.5535">
        <ele>74.237297</ele>
        <time>2013-03-07T17:07:59Z</time>
      </trkpt>
    </trkseg>
  </trk>
</gpx>